<?xml version="1.0" encoding="UTF-8" standalone="no" ?>
<gpx xmlns="http://www.topografix.com/GPX/1/1" xmlns:xsi="http://www.w3.org/2001/XMLSchema-instance" xsi:schemaLocation="http://www.topografix.com/GPX/1/1 http://www.topografix.com/GPX/1/1/gpx.xsd" version="1.1" creator="VisuGPX - https://www.visugpx.com">
  <metadata>
    <name>montagne de foge</name>
    <desc><![CDATA[1ere raquette]]></desc>
  </metadata>
  <trk>
    <name><![CDATA[La Montagne de la Foge deplacement]]></name>
    <trkseg>
      <trkpt lat="45.96729" lon="6.23004">
        <ele>1026.825439</ele>
        <time>2010-12-04T13:49:13Z</time>
      </trkpt>
      <trkpt lat="45.96737" lon="6.23013">
        <ele>1027.306152</ele>
        <time>2010-12-04T13:49:22Z</time>
      </trkpt>
      <trkpt lat="45.96743" lon="6.23019">
        <ele>1027.306152</ele>
        <time>2010-12-04T13:49:29Z</time>
      </trkpt>
      <trkpt lat="45.96751" lon="6.23022">
        <ele>1028.267334</ele>
        <time>2010-12-04T13:49:37Z</time>
      </trkpt>
      <trkpt lat="45.96758" lon="6.23025">
        <ele>1028.748047</ele>
        <time>2010-12-04T13:49:43Z</time>
      </trkpt>
      <trkpt lat="45.96762" lon="6.23026">
        <ele>1029.228516</ele>
        <time>2010-12-04T13:49:46Z</time>
      </trkpt>
      <trkpt lat="45.9677" lon="6.23034">
        <ele>1029.709229</ele>
        <time>2010-12-04T13:49:54Z</time>
      </trkpt>
      <trkpt lat="45.9678" lon="6.2304">
        <ele>1030.189941</ele>
        <time>2010-12-04T13:50:02Z</time>
      </trkpt>
      <trkpt lat="45.96788" lon="6.23044">
        <ele>1031.151367</ele>
        <time>2010-12-04T13:50:10Z</time>
      </trkpt>
      <trkpt lat="45.96794" lon="6.23054">
        <ele>1032.112549</ele>
        <time>2010-12-04T13:50:18Z</time>
      </trkpt>
      <trkpt lat="45.96805" lon="6.23064">
        <ele>1032.593262</ele>
        <time>2010-12-04T13:50:27Z</time>
      </trkpt>
      <trkpt lat="45.96808" lon="6.23072">
        <ele>1034.035156</ele>
        <time>2010-12-04T13:50:35Z</time>
      </trkpt>
      <trkpt lat="45.96815" lon="6.2308">
        <ele>1034.515869</ele>
        <time>2010-12-04T13:50:43Z</time>
      </trkpt>
      <trkpt lat="45.96822" lon="6.23094">
        <ele>1035.957764</ele>
        <time>2010-12-04T13:50:54Z</time>
      </trkpt>
      <trkpt lat="45.9683" lon="6.23105">
        <ele>1037.399902</ele>
        <time>2010-12-04T13:51:03Z</time>
      </trkpt>
      <trkpt lat="45.96834" lon="6.23114">
        <ele>1038.361328</ele>
        <time>2010-12-04T13:51:09Z</time>
      </trkpt>
      <trkpt lat="45.96843" lon="6.23127">
        <ele>1038.842041</ele>
        <time>2010-12-04T13:51:18Z</time>
      </trkpt>
      <trkpt lat="45.96846" lon="6.23138">
        <ele>1039.803223</ele>
        <time>2010-12-04T13:51:25Z</time>
      </trkpt>
      <trkpt lat="45.96847" lon="6.23147">
        <ele>1040.764404</ele>
        <time>2010-12-04T13:51:32Z</time>
      </trkpt>
      <trkpt lat="45.96851" lon="6.23158">
        <ele>1040.764404</ele>
        <time>2010-12-04T13:51:39Z</time>
      </trkpt>
      <trkpt lat="45.96855" lon="6.23167">
        <ele>1042.687256</ele>
        <time>2010-12-04T13:51:46Z</time>
      </trkpt>
      <trkpt lat="45.9686" lon="6.2318">
        <ele>1044.12915</ele>
        <time>2010-12-04T13:51:56Z</time>
      </trkpt>
      <trkpt lat="45.96861" lon="6.2319">
        <ele>1045.571045</ele>
        <time>2010-12-04T13:52:03Z</time>
      </trkpt>
      <trkpt lat="45.96862" lon="6.23201">
        <ele>1045.571045</ele>
        <time>2010-12-04T13:52:10Z</time>
      </trkpt>
      <trkpt lat="45.96865" lon="6.23215">
        <ele>1046.051758</ele>
        <time>2010-12-04T13:52:20Z</time>
      </trkpt>
      <trkpt lat="45.96866" lon="6.23226">
        <ele>1047.012939</ele>
        <time>2010-12-04T13:52:26Z</time>
      </trkpt>
      <trkpt lat="45.96869" lon="6.23237">
        <ele>1048.454834</ele>
        <time>2010-12-04T13:52:32Z</time>
      </trkpt>
      <trkpt lat="45.96872" lon="6.23246">
        <ele>1049.41626</ele>
        <time>2010-12-04T13:52:39Z</time>
      </trkpt>
      <trkpt lat="45.96881" lon="6.23254">
        <ele>1049.41626</ele>
        <time>2010-12-04T13:52:45Z</time>
      </trkpt>
      <trkpt lat="45.96884" lon="6.2326">
        <ele>1050.377686</ele>
        <time>2010-12-04T13:52:52Z</time>
      </trkpt>
      <trkpt lat="45.96887" lon="6.23266">
        <ele>1051.338867</ele>
        <time>2010-12-04T13:52:58Z</time>
      </trkpt>
      <trkpt lat="45.96891" lon="6.23276">
        <ele>1052.300293</ele>
        <time>2010-12-04T13:53:05Z</time>
      </trkpt>
      <trkpt lat="45.96895" lon="6.23281">
        <ele>1052.781006</ele>
        <time>2010-12-04T13:53:10Z</time>
      </trkpt>
      <trkpt lat="45.96899" lon="6.23289">
        <ele>1053.261719</ele>
        <time>2010-12-04T13:53:16Z</time>
      </trkpt>
      <trkpt lat="45.96903" lon="6.23297">
        <ele>1054.223145</ele>
        <time>2010-12-04T13:53:22Z</time>
      </trkpt>
      <trkpt lat="45.96907" lon="6.2331">
        <ele>1055.184326</ele>
        <time>2010-12-04T13:53:31Z</time>
      </trkpt>
      <trkpt lat="45.96911" lon="6.23319">
        <ele>1055.665039</ele>
        <time>2010-12-04T13:53:38Z</time>
      </trkpt>
      <trkpt lat="45.96912" lon="6.23324">
        <ele>1056.145508</ele>
        <time>2010-12-04T13:53:41Z</time>
      </trkpt>
      <trkpt lat="45.96917" lon="6.2334">
        <ele>1058.068359</ele>
        <time>2010-12-04T13:53:51Z</time>
      </trkpt>
      <trkpt lat="45.96918" lon="6.23347">
        <ele>1058.068359</ele>
        <time>2010-12-04T13:53:56Z</time>
      </trkpt>
      <trkpt lat="45.96921" lon="6.23359">
        <ele>1059.510254</ele>
        <time>2010-12-04T13:54:05Z</time>
      </trkpt>
      <trkpt lat="45.96923" lon="6.23371">
        <ele>1060.952148</ele>
        <time>2010-12-04T13:54:11Z</time>
      </trkpt>
      <trkpt lat="45.96924" lon="6.23382">
        <ele>1060.952148</ele>
        <time>2010-12-04T13:54:17Z</time>
      </trkpt>
      <trkpt lat="45.96925" lon="6.23396">
        <ele>1061.913574</ele>
        <time>2010-12-04T13:54:27Z</time>
      </trkpt>
      <trkpt lat="45.96925" lon="6.23408">
        <ele>1063.355469</ele>
        <time>2010-12-04T13:54:34Z</time>
      </trkpt>
      <trkpt lat="45.96926" lon="6.23418">
        <ele>1063.835938</ele>
        <time>2010-12-04T13:54:40Z</time>
      </trkpt>
      <trkpt lat="45.96928" lon="6.23428">
        <ele>1064.31665</ele>
        <time>2010-12-04T13:54:47Z</time>
      </trkpt>
      <trkpt lat="45.96931" lon="6.23435">
        <ele>1064.797363</ele>
        <time>2010-12-04T13:54:52Z</time>
      </trkpt>
      <trkpt lat="45.96935" lon="6.23443">
        <ele>1065.278076</ele>
        <time>2010-12-04T13:54:59Z</time>
      </trkpt>
      <trkpt lat="45.96936" lon="6.23463">
        <ele>1067.200684</ele>
        <time>2010-12-04T13:55:10Z</time>
      </trkpt>
      <trkpt lat="45.96939" lon="6.23474">
        <ele>1068.162109</ele>
        <time>2010-12-04T13:55:17Z</time>
      </trkpt>
      <trkpt lat="45.96943" lon="6.23486">
        <ele>1069.123535</ele>
        <time>2010-12-04T13:55:26Z</time>
      </trkpt>
      <trkpt lat="45.96949" lon="6.23499">
        <ele>1071.526611</ele>
        <time>2010-12-04T13:55:35Z</time>
      </trkpt>
      <trkpt lat="45.96953" lon="6.23506">
        <ele>1072.007324</ele>
        <time>2010-12-04T13:55:41Z</time>
      </trkpt>
      <trkpt lat="45.96959" lon="6.23516">
        <ele>1073.929932</ele>
        <time>2010-12-04T13:55:50Z</time>
      </trkpt>
      <trkpt lat="45.96964" lon="6.23521">
        <ele>1074.891357</ele>
        <time>2010-12-04T13:55:57Z</time>
      </trkpt>
      <trkpt lat="45.96971" lon="6.23528">
        <ele>1076.813965</ele>
        <time>2010-12-04T13:56:05Z</time>
      </trkpt>
      <trkpt lat="45.96976" lon="6.23538">
        <ele>1077.294678</ele>
        <time>2010-12-04T13:56:13Z</time>
      </trkpt>
      <trkpt lat="45.9698" lon="6.23547">
        <ele>1077.294678</ele>
        <time>2010-12-04T13:56:20Z</time>
      </trkpt>
      <trkpt lat="45.96985" lon="6.23553">
        <ele>1079.217041</ele>
        <time>2010-12-04T13:56:25Z</time>
      </trkpt>
      <trkpt lat="45.96991" lon="6.23565">
        <ele>1079.697754</ele>
        <time>2010-12-04T13:56:33Z</time>
      </trkpt>
      <trkpt lat="45.96996" lon="6.23575">
        <ele>1080.65918</ele>
        <time>2010-12-04T13:56:42Z</time>
      </trkpt>
      <trkpt lat="45.97003" lon="6.23584">
        <ele>1081.139893</ele>
        <time>2010-12-04T13:56:50Z</time>
      </trkpt>
      <trkpt lat="45.97008" lon="6.23593">
        <ele>1082.101074</ele>
        <time>2010-12-04T13:56:57Z</time>
      </trkpt>
      <trkpt lat="45.9701" lon="6.23596">
        <ele>1082.101074</ele>
        <time>2010-12-04T13:57:00Z</time>
      </trkpt>
      <trkpt lat="45.97017" lon="6.23601">
        <ele>1083.542969</ele>
        <time>2010-12-04T13:57:07Z</time>
      </trkpt>
      <trkpt lat="45.97025" lon="6.23604">
        <ele>1084.023926</ele>
        <time>2010-12-04T13:57:14Z</time>
      </trkpt>
      <trkpt lat="45.97033" lon="6.23607">
        <ele>1085.46582</ele>
        <time>2010-12-04T13:57:20Z</time>
      </trkpt>
      <trkpt lat="45.97042" lon="6.23616">
        <ele>1085.946533</ele>
        <time>2010-12-04T13:57:29Z</time>
      </trkpt>
      <trkpt lat="45.97049" lon="6.23624">
        <ele>1087.869141</ele>
        <time>2010-12-04T13:57:37Z</time>
      </trkpt>
      <trkpt lat="45.97054" lon="6.23632">
        <ele>1087.869141</ele>
        <time>2010-12-04T13:57:45Z</time>
      </trkpt>
      <trkpt lat="45.97058" lon="6.23639">
        <ele>1088.830566</ele>
        <time>2010-12-04T13:57:52Z</time>
      </trkpt>
      <trkpt lat="45.97062" lon="6.23648">
        <ele>1089.311035</ele>
        <time>2010-12-04T13:58:00Z</time>
      </trkpt>
      <trkpt lat="45.97068" lon="6.23659">
        <ele>1090.272461</ele>
        <time>2010-12-04T13:58:08Z</time>
      </trkpt>
      <trkpt lat="45.97069" lon="6.23662">
        <ele>1091.714355</ele>
        <time>2010-12-04T13:58:10Z</time>
      </trkpt>
      <trkpt lat="45.97074" lon="6.2367">
        <ele>1091.714355</ele>
        <time>2010-12-04T13:58:18Z</time>
      </trkpt>
      <trkpt lat="45.97081" lon="6.23678">
        <ele>1093.636963</ele>
        <time>2010-12-04T13:58:26Z</time>
      </trkpt>
      <trkpt lat="45.97089" lon="6.2368">
        <ele>1094.598145</ele>
        <time>2010-12-04T13:58:32Z</time>
      </trkpt>
      <trkpt lat="45.97095" lon="6.2368">
        <ele>1094.598145</ele>
        <time>2010-12-04T13:58:38Z</time>
      </trkpt>
      <trkpt lat="45.97102" lon="6.23678">
        <ele>1096.040283</ele>
        <time>2010-12-04T13:58:45Z</time>
      </trkpt>
      <trkpt lat="45.97114" lon="6.23682">
        <ele>1097.001465</ele>
        <time>2010-12-04T13:58:53Z</time>
      </trkpt>
      <trkpt lat="45.97123" lon="6.23684">
        <ele>1097.482178</ele>
        <time>2010-12-04T13:59:01Z</time>
      </trkpt>
      <trkpt lat="45.9713" lon="6.23687">
        <ele>1098.443359</ele>
        <time>2010-12-04T13:59:08Z</time>
      </trkpt>
      <trkpt lat="45.97137" lon="6.23697">
        <ele>1099.404785</ele>
        <time>2010-12-04T13:59:17Z</time>
      </trkpt>
      <trkpt lat="45.97137" lon="6.23698">
        <ele>1100.366455</ele>
        <time>2010-12-04T13:59:18Z</time>
      </trkpt>
      <trkpt lat="45.97145" lon="6.23705">
        <ele>1101.327637</ele>
        <time>2010-12-04T13:59:27Z</time>
      </trkpt>
      <trkpt lat="45.97146" lon="6.23711">
        <ele>1101.80835</ele>
        <time>2010-12-04T13:59:31Z</time>
      </trkpt>
      <trkpt lat="45.97151" lon="6.23719">
        <ele>1102.288818</ele>
        <time>2010-12-04T13:59:38Z</time>
      </trkpt>
      <trkpt lat="45.97158" lon="6.23725">
        <ele>1103.730957</ele>
        <time>2010-12-04T13:59:45Z</time>
      </trkpt>
      <trkpt lat="45.97167" lon="6.23733">
        <ele>1104.692139</ele>
        <time>2010-12-04T13:59:54Z</time>
      </trkpt>
      <trkpt lat="45.97172" lon="6.2374">
        <ele>1106.134033</ele>
        <time>2010-12-04T14:00:01Z</time>
      </trkpt>
      <trkpt lat="45.97182" lon="6.23745">
        <ele>1106.134033</ele>
        <time>2010-12-04T14:00:09Z</time>
      </trkpt>
      <trkpt lat="45.97188" lon="6.23754">
        <ele>1108.056885</ele>
        <time>2010-12-04T14:00:17Z</time>
      </trkpt>
      <trkpt lat="45.97197" lon="6.23763">
        <ele>1109.018066</ele>
        <time>2010-12-04T14:00:27Z</time>
      </trkpt>
      <trkpt lat="45.97204" lon="6.23772">
        <ele>1110.459961</ele>
        <time>2010-12-04T14:00:35Z</time>
      </trkpt>
      <trkpt lat="45.97211" lon="6.2378">
        <ele>1111.421387</ele>
        <time>2010-12-04T14:00:43Z</time>
      </trkpt>
      <trkpt lat="45.97218" lon="6.23791">
        <ele>1112.382568</ele>
        <time>2010-12-04T14:00:53Z</time>
      </trkpt>
      <trkpt lat="45.97225" lon="6.238">
        <ele>1112.863281</ele>
        <time>2010-12-04T14:01:01Z</time>
      </trkpt>
      <trkpt lat="45.97232" lon="6.23808">
        <ele>1113.343994</ele>
        <time>2010-12-04T14:01:09Z</time>
      </trkpt>
      <trkpt lat="45.97238" lon="6.23816">
        <ele>1114.785889</ele>
        <time>2010-12-04T14:01:17Z</time>
      </trkpt>
      <trkpt lat="45.97247" lon="6.23829">
        <ele>1115.747314</ele>
        <time>2010-12-04T14:01:28Z</time>
      </trkpt>
      <trkpt lat="45.97252" lon="6.23839">
        <ele>1115.747314</ele>
        <time>2010-12-04T14:01:36Z</time>
      </trkpt>
      <trkpt lat="45.97256" lon="6.23847">
        <ele>1116.70874</ele>
        <time>2010-12-04T14:01:42Z</time>
      </trkpt>
      <trkpt lat="45.97262" lon="6.23853">
        <ele>1118.150635</ele>
        <time>2010-12-04T14:01:47Z</time>
      </trkpt>
      <trkpt lat="45.97272" lon="6.23865">
        <ele>1119.592773</ele>
        <time>2010-12-04T14:01:57Z</time>
      </trkpt>
      <trkpt lat="45.97279" lon="6.23875">
        <ele>1121.034668</ele>
        <time>2010-12-04T14:02:07Z</time>
      </trkpt>
      <trkpt lat="45.97284" lon="6.23884">
        <ele>1123.918457</ele>
        <time>2010-12-04T14:02:16Z</time>
      </trkpt>
      <trkpt lat="45.97289" lon="6.23891">
        <ele>1124.39917</ele>
        <time>2010-12-04T14:02:24Z</time>
      </trkpt>
      <trkpt lat="45.97296" lon="6.23898">
        <ele>1124.39917</ele>
        <time>2010-12-04T14:02:31Z</time>
      </trkpt>
      <trkpt lat="45.97301" lon="6.2391">
        <ele>1125.841064</ele>
        <time>2010-12-04T14:02:41Z</time>
      </trkpt>
      <trkpt lat="45.97308" lon="6.23918">
        <ele>1126.80249</ele>
        <time>2010-12-04T14:02:49Z</time>
      </trkpt>
      <trkpt lat="45.97314" lon="6.23927">
        <ele>1126.80249</ele>
        <time>2010-12-04T14:02:57Z</time>
      </trkpt>
      <trkpt lat="45.97324" lon="6.23937">
        <ele>1128.725098</ele>
        <time>2010-12-04T14:03:07Z</time>
      </trkpt>
      <trkpt lat="45.97331" lon="6.23944">
        <ele>1129.686279</ele>
        <time>2010-12-04T14:03:14Z</time>
      </trkpt>
      <trkpt lat="45.97335" lon="6.23956">
        <ele>1130.166992</ele>
        <time>2010-12-04T14:03:24Z</time>
      </trkpt>
      <trkpt lat="45.9734" lon="6.23966">
        <ele>1131.608887</ele>
        <time>2010-12-04T14:03:32Z</time>
      </trkpt>
      <trkpt lat="45.97345" lon="6.23975">
        <ele>1132.089844</ele>
        <time>2010-12-04T14:03:40Z</time>
      </trkpt>
      <trkpt lat="45.97349" lon="6.23984">
        <ele>1133.051025</ele>
        <time>2010-12-04T14:03:47Z</time>
      </trkpt>
      <trkpt lat="45.97355" lon="6.23995">
        <ele>1134.012451</ele>
        <time>2010-12-04T14:03:57Z</time>
      </trkpt>
      <trkpt lat="45.97359" lon="6.24006">
        <ele>1134.493164</ele>
        <time>2010-12-04T14:04:05Z</time>
      </trkpt>
      <trkpt lat="45.97366" lon="6.24021">
        <ele>1136.415771</ele>
        <time>2010-12-04T14:04:17Z</time>
      </trkpt>
      <trkpt lat="45.97372" lon="6.24031">
        <ele>1137.857666</ele>
        <time>2010-12-04T14:04:26Z</time>
      </trkpt>
      <trkpt lat="45.9738" lon="6.24039">
        <ele>1138.819092</ele>
        <time>2010-12-04T14:04:35Z</time>
      </trkpt>
      <trkpt lat="45.97388" lon="6.24048">
        <ele>1140.260986</ele>
        <time>2010-12-04T14:04:44Z</time>
      </trkpt>
      <trkpt lat="45.97396" lon="6.24055">
        <ele>1140.741455</ele>
        <time>2010-12-04T14:04:53Z</time>
      </trkpt>
      <trkpt lat="45.97403" lon="6.24062">
        <ele>1143.144775</ele>
        <time>2010-12-04T14:05:02Z</time>
      </trkpt>
      <trkpt lat="45.97404" lon="6.24073">
        <ele>1144.58667</ele>
        <time>2010-12-04T14:05:11Z</time>
      </trkpt>
      <trkpt lat="45.97396" lon="6.24073">
        <ele>1146.028809</ele>
        <time>2010-12-04T14:05:22Z</time>
      </trkpt>
      <trkpt lat="45.97389" lon="6.24067">
        <ele>1147.470703</ele>
        <time>2010-12-04T14:05:33Z</time>
      </trkpt>
      <trkpt lat="45.97378" lon="6.2406">
        <ele>1148.432129</ele>
        <time>2010-12-04T14:05:45Z</time>
      </trkpt>
      <trkpt lat="45.97369" lon="6.24054">
        <ele>1149.393555</ele>
        <time>2010-12-04T14:05:55Z</time>
      </trkpt>
      <trkpt lat="45.97361" lon="6.24045">
        <ele>1149.874268</ele>
        <time>2010-12-04T14:06:05Z</time>
      </trkpt>
      <trkpt lat="45.97353" lon="6.24035">
        <ele>1150.835449</ele>
        <time>2010-12-04T14:06:15Z</time>
      </trkpt>
      <trkpt lat="45.97342" lon="6.24024">
        <ele>1152.758057</ele>
        <time>2010-12-04T14:06:30Z</time>
      </trkpt>
      <trkpt lat="45.97333" lon="6.24014">
        <ele>1154.680664</ele>
        <time>2010-12-04T14:06:41Z</time>
      </trkpt>
      <trkpt lat="45.97323" lon="6.24004">
        <ele>1156.603271</ele>
        <time>2010-12-04T14:06:54Z</time>
      </trkpt>
      <trkpt lat="45.97314" lon="6.23999">
        <ele>1158.04541</ele>
        <time>2010-12-04T14:07:07Z</time>
      </trkpt>
      <trkpt lat="45.97306" lon="6.23995">
        <ele>1159.487305</ele>
        <time>2010-12-04T14:07:17Z</time>
      </trkpt>
      <trkpt lat="45.97291" lon="6.23982">
        <ele>1160.448486</ele>
        <time>2010-12-04T14:07:41Z</time>
      </trkpt>
      <trkpt lat="45.9729" lon="6.2399">
        <ele>1158.525879</ele>
        <time>2010-12-04T14:11:55Z</time>
      </trkpt>
      <trkpt lat="45.97292" lon="6.23994">
        <ele>1159.487305</ele>
        <time>2010-12-04T14:12:04Z</time>
      </trkpt>
      <trkpt lat="45.97296" lon="6.23998">
        <ele>1160.929199</ele>
        <time>2010-12-04T14:12:16Z</time>
      </trkpt>
      <trkpt lat="45.97298" lon="6.24001">
        <ele>1162.371094</ele>
        <time>2010-12-04T14:12:23Z</time>
      </trkpt>
      <trkpt lat="45.973" lon="6.24006">
        <ele>1163.33252</ele>
        <time>2010-12-04T14:12:32Z</time>
      </trkpt>
      <trkpt lat="45.97305" lon="6.24011">
        <ele>1164.293945</ele>
        <time>2010-12-04T14:12:42Z</time>
      </trkpt>
      <trkpt lat="45.97309" lon="6.2402">
        <ele>1166.216553</ele>
        <time>2010-12-04T14:12:54Z</time>
      </trkpt>
      <trkpt lat="45.97313" lon="6.24026">
        <ele>1166.697266</ele>
        <time>2010-12-04T14:13:05Z</time>
      </trkpt>
      <trkpt lat="45.97316" lon="6.24032">
        <ele>1167.177979</ele>
        <time>2010-12-04T14:13:15Z</time>
      </trkpt>
      <trkpt lat="45.97319" lon="6.24041">
        <ele>1168.619873</ele>
        <time>2010-12-04T14:13:26Z</time>
      </trkpt>
      <trkpt lat="45.97321" lon="6.24052">
        <ele>1169.581299</ele>
        <time>2010-12-04T14:13:38Z</time>
      </trkpt>
      <trkpt lat="45.97324" lon="6.24059">
        <ele>1170.54248</ele>
        <time>2010-12-04T14:13:49Z</time>
      </trkpt>
      <trkpt lat="45.97326" lon="6.24064">
        <ele>1171.984375</ele>
        <time>2010-12-04T14:13:58Z</time>
      </trkpt>
      <trkpt lat="45.97328" lon="6.24071">
        <ele>1171.503662</ele>
        <time>2010-12-04T14:14:08Z</time>
      </trkpt>
      <trkpt lat="45.97331" lon="6.24077">
        <ele>1173.426514</ele>
        <time>2010-12-04T14:14:17Z</time>
      </trkpt>
      <trkpt lat="45.97333" lon="6.24083">
        <ele>1174.868408</ele>
        <time>2010-12-04T14:14:28Z</time>
      </trkpt>
      <trkpt lat="45.97335" lon="6.24089">
        <ele>1174.868408</ele>
        <time>2010-12-04T14:14:36Z</time>
      </trkpt>
      <trkpt lat="45.97338" lon="6.24096">
        <ele>1177.271729</ele>
        <time>2010-12-04T14:14:44Z</time>
      </trkpt>
      <trkpt lat="45.9734" lon="6.24103">
        <ele>1177.271729</ele>
        <time>2010-12-04T14:14:54Z</time>
      </trkpt>
      <trkpt lat="45.97342" lon="6.24107">
        <ele>1178.23291</ele>
        <time>2010-12-04T14:15:02Z</time>
      </trkpt>
      <trkpt lat="45.97348" lon="6.24113">
        <ele>1178.713623</ele>
        <time>2010-12-04T14:15:12Z</time>
      </trkpt>
      <trkpt lat="45.97352" lon="6.2412">
        <ele>1181.117188</ele>
        <time>2010-12-04T14:15:25Z</time>
      </trkpt>
      <trkpt lat="45.97356" lon="6.24125">
        <ele>1182.078369</ele>
        <time>2010-12-04T14:15:33Z</time>
      </trkpt>
      <trkpt lat="45.9736" lon="6.24131">
        <ele>1183.039551</ele>
        <time>2010-12-04T14:15:42Z</time>
      </trkpt>
      <trkpt lat="45.97361" lon="6.24135">
        <ele>1183.039551</ele>
        <time>2010-12-04T14:15:50Z</time>
      </trkpt>
      <trkpt lat="45.97364" lon="6.24143">
        <ele>1184.962402</ele>
        <time>2010-12-04T14:15:59Z</time>
      </trkpt>
      <trkpt lat="45.9737" lon="6.24152">
        <ele>1185.442871</ele>
        <time>2010-12-04T14:16:12Z</time>
      </trkpt>
      <trkpt lat="45.97374" lon="6.24156">
        <ele>1185.442871</ele>
        <time>2010-12-04T14:16:20Z</time>
      </trkpt>
      <trkpt lat="45.97379" lon="6.24163">
        <ele>1186.884766</ele>
        <time>2010-12-04T14:16:30Z</time>
      </trkpt>
      <trkpt lat="45.97382" lon="6.24172">
        <ele>1189.768799</ele>
        <time>2010-12-04T14:16:41Z</time>
      </trkpt>
      <trkpt lat="45.97385" lon="6.24177">
        <ele>1189.768799</ele>
        <time>2010-12-04T14:16:51Z</time>
      </trkpt>
      <trkpt lat="45.97388" lon="6.24182">
        <ele>1191.210693</ele>
        <time>2010-12-04T14:17:00Z</time>
      </trkpt>
      <trkpt lat="45.97391" lon="6.24188">
        <ele>1191.691406</ele>
        <time>2010-12-04T14:17:09Z</time>
      </trkpt>
      <trkpt lat="45.97394" lon="6.24196">
        <ele>1192.652832</ele>
        <time>2010-12-04T14:17:20Z</time>
      </trkpt>
      <trkpt lat="45.97396" lon="6.24202">
        <ele>1193.133301</ele>
        <time>2010-12-04T14:17:30Z</time>
      </trkpt>
      <trkpt lat="45.97397" lon="6.2421">
        <ele>1194.094727</ele>
        <time>2010-12-04T14:17:41Z</time>
      </trkpt>
      <trkpt lat="45.97401" lon="6.24216">
        <ele>1195.055908</ele>
        <time>2010-12-04T14:17:52Z</time>
      </trkpt>
      <trkpt lat="45.97404" lon="6.24222">
        <ele>1196.97876</ele>
        <time>2010-12-04T14:18:01Z</time>
      </trkpt>
      <trkpt lat="45.97408" lon="6.2423">
        <ele>1197.459473</ele>
        <time>2010-12-04T14:18:12Z</time>
      </trkpt>
      <trkpt lat="45.97412" lon="6.24237">
        <ele>1198.420654</ele>
        <time>2010-12-04T14:18:24Z</time>
      </trkpt>
      <trkpt lat="45.97415" lon="6.2424">
        <ele>1199.38208</ele>
        <time>2010-12-04T14:18:31Z</time>
      </trkpt>
      <trkpt lat="45.97416" lon="6.24246">
        <ele>1199.862793</ele>
        <time>2010-12-04T14:18:40Z</time>
      </trkpt>
      <trkpt lat="45.97424" lon="6.24251">
        <ele>1200.343506</ele>
        <time>2010-12-04T14:18:51Z</time>
      </trkpt>
      <trkpt lat="45.97425" lon="6.24256">
        <ele>1202.746582</ele>
        <time>2010-12-04T14:18:59Z</time>
      </trkpt>
      <trkpt lat="45.97426" lon="6.24263">
        <ele>1202.265869</ele>
        <time>2010-12-04T14:19:07Z</time>
      </trkpt>
      <trkpt lat="45.97427" lon="6.24269">
        <ele>1201.7854</ele>
        <time>2010-12-04T14:19:15Z</time>
      </trkpt>
      <trkpt lat="45.9743" lon="6.24276">
        <ele>1202.265869</ele>
        <time>2010-12-04T14:19:24Z</time>
      </trkpt>
      <trkpt lat="45.97431" lon="6.24284">
        <ele>1202.746582</ele>
        <time>2010-12-04T14:19:33Z</time>
      </trkpt>
      <trkpt lat="45.97432" lon="6.2429">
        <ele>1203.708008</ele>
        <time>2010-12-04T14:19:41Z</time>
      </trkpt>
      <trkpt lat="45.97434" lon="6.24297">
        <ele>1203.227295</ele>
        <time>2010-12-04T14:19:49Z</time>
      </trkpt>
      <trkpt lat="45.97437" lon="6.24306">
        <ele>1205.149902</ele>
        <time>2010-12-04T14:19:59Z</time>
      </trkpt>
      <trkpt lat="45.97438" lon="6.24311">
        <ele>1206.591797</ele>
        <time>2010-12-04T14:20:08Z</time>
      </trkpt>
      <trkpt lat="45.9744" lon="6.24317">
        <ele>1207.07251</ele>
        <time>2010-12-04T14:20:18Z</time>
      </trkpt>
      <trkpt lat="45.97443" lon="6.24324">
        <ele>1208.514404</ele>
        <time>2010-12-04T14:20:29Z</time>
      </trkpt>
      <trkpt lat="45.97444" lon="6.2433">
        <ele>1209.47583</ele>
        <time>2010-12-04T14:20:38Z</time>
      </trkpt>
      <trkpt lat="45.97446" lon="6.24337">
        <ele>1210.437012</ele>
        <time>2010-12-04T14:20:49Z</time>
      </trkpt>
      <trkpt lat="45.97449" lon="6.24343">
        <ele>1211.87915</ele>
        <time>2010-12-04T14:20:59Z</time>
      </trkpt>
      <trkpt lat="45.97452" lon="6.24353">
        <ele>1212.840576</ele>
        <time>2010-12-04T14:21:13Z</time>
      </trkpt>
      <trkpt lat="45.97451" lon="6.24354">
        <ele>1213.321289</ele>
        <time>2010-12-04T14:21:21Z</time>
      </trkpt>
      <trkpt lat="45.97448" lon="6.24352">
        <ele>1214.282471</ele>
        <time>2010-12-04T14:21:31Z</time>
      </trkpt>
      <trkpt lat="45.97445" lon="6.24349">
        <ele>1216.205078</ele>
        <time>2010-12-04T14:21:42Z</time>
      </trkpt>
      <trkpt lat="45.97442" lon="6.24346">
        <ele>1217.646973</ele>
        <time>2010-12-04T14:21:50Z</time>
      </trkpt>
      <trkpt lat="45.97436" lon="6.24341">
        <ele>1218.608398</ele>
        <time>2010-12-04T14:22:01Z</time>
      </trkpt>
      <trkpt lat="45.97435" lon="6.24339">
        <ele>1219.569824</ele>
        <time>2010-12-04T14:22:03Z</time>
      </trkpt>
      <trkpt lat="45.9743" lon="6.24335">
        <ele>1220.050293</ele>
        <time>2010-12-04T14:22:12Z</time>
      </trkpt>
      <trkpt lat="45.97426" lon="6.24329">
        <ele>1220.531006</ele>
        <time>2010-12-04T14:22:21Z</time>
      </trkpt>
      <trkpt lat="45.97421" lon="6.24322">
        <ele>1221.492188</ele>
        <time>2010-12-04T14:22:31Z</time>
      </trkpt>
      <trkpt lat="45.9742" lon="6.24319">
        <ele>1222.453613</ele>
        <time>2010-12-04T14:22:39Z</time>
      </trkpt>
      <trkpt lat="45.97418" lon="6.24314">
        <ele>1222.934326</ele>
        <time>2010-12-04T14:22:48Z</time>
      </trkpt>
      <trkpt lat="45.97414" lon="6.24308">
        <ele>1224.856934</ele>
        <time>2010-12-04T14:22:58Z</time>
      </trkpt>
      <trkpt lat="45.97413" lon="6.24303">
        <ele>1226.298828</ele>
        <time>2010-12-04T14:23:07Z</time>
      </trkpt>
      <trkpt lat="45.97409" lon="6.24296">
        <ele>1226.779541</ele>
        <time>2010-12-04T14:23:15Z</time>
      </trkpt>
      <trkpt lat="45.97406" lon="6.24291">
        <ele>1227.740723</ele>
        <time>2010-12-04T14:23:25Z</time>
      </trkpt>
      <trkpt lat="45.97401" lon="6.24286">
        <ele>1228.702393</ele>
        <time>2010-12-04T14:23:37Z</time>
      </trkpt>
      <trkpt lat="45.97396" lon="6.24279">
        <ele>1229.663574</ele>
        <time>2010-12-04T14:23:48Z</time>
      </trkpt>
      <trkpt lat="45.97392" lon="6.24276">
        <ele>1229.663574</ele>
        <time>2010-12-04T14:23:56Z</time>
      </trkpt>
      <trkpt lat="45.97388" lon="6.24273">
        <ele>1231.105713</ele>
        <time>2010-12-04T14:24:04Z</time>
      </trkpt>
      <trkpt lat="45.97383" lon="6.24268">
        <ele>1232.066895</ele>
        <time>2010-12-04T14:24:14Z</time>
      </trkpt>
      <trkpt lat="45.97378" lon="6.24266">
        <ele>1233.508789</ele>
        <time>2010-12-04T14:24:24Z</time>
      </trkpt>
      <trkpt lat="45.97372" lon="6.24263">
        <ele>1234.470215</ele>
        <time>2010-12-04T14:24:35Z</time>
      </trkpt>
      <trkpt lat="45.97366" lon="6.24259">
        <ele>1235.431396</ele>
        <time>2010-12-04T14:24:46Z</time>
      </trkpt>
      <trkpt lat="45.97362" lon="6.24256">
        <ele>1235.912109</ele>
        <time>2010-12-04T14:24:56Z</time>
      </trkpt>
      <trkpt lat="45.97359" lon="6.24254">
        <ele>1235.912109</ele>
        <time>2010-12-04T14:25:04Z</time>
      </trkpt>
      <trkpt lat="45.97353" lon="6.24251">
        <ele>1237.354004</ele>
        <time>2010-12-04T14:25:16Z</time>
      </trkpt>
      <trkpt lat="45.97348" lon="6.24246">
        <ele>1238.31543</ele>
        <time>2010-12-04T14:25:27Z</time>
      </trkpt>
      <trkpt lat="45.97343" lon="6.24242">
        <ele>1240.238037</ele>
        <time>2010-12-04T14:25:39Z</time>
      </trkpt>
      <trkpt lat="45.97336" lon="6.24238">
        <ele>1241.199219</ele>
        <time>2010-12-04T14:25:50Z</time>
      </trkpt>
      <trkpt lat="45.97328" lon="6.24235">
        <ele>1243.121826</ele>
        <time>2010-12-04T14:26:03Z</time>
      </trkpt>
      <trkpt lat="45.97321" lon="6.24232">
        <ele>1243.121826</ele>
        <time>2010-12-04T14:26:18Z</time>
      </trkpt>
      <trkpt lat="45.97314" lon="6.24228">
        <ele>1245.044678</ele>
        <time>2010-12-04T14:26:29Z</time>
      </trkpt>
      <trkpt lat="45.97308" lon="6.24226">
        <ele>1245.525391</ele>
        <time>2010-12-04T14:26:41Z</time>
      </trkpt>
      <trkpt lat="45.97303" lon="6.24226">
        <ele>1247.447998</ele>
        <time>2010-12-04T14:26:51Z</time>
      </trkpt>
      <trkpt lat="45.97295" lon="6.24223">
        <ele>1247.447998</ele>
        <time>2010-12-04T14:27:02Z</time>
      </trkpt>
      <trkpt lat="45.9729" lon="6.24219">
        <ele>1247.928711</ele>
        <time>2010-12-04T14:27:13Z</time>
      </trkpt>
      <trkpt lat="45.97285" lon="6.24215">
        <ele>1248.889893</ele>
        <time>2010-12-04T14:27:21Z</time>
      </trkpt>
      <trkpt lat="45.97281" lon="6.24212">
        <ele>1249.851318</ele>
        <time>2010-12-04T14:27:30Z</time>
      </trkpt>
      <trkpt lat="45.97277" lon="6.2421">
        <ele>1249.851318</ele>
        <time>2010-12-04T14:27:39Z</time>
      </trkpt>
      <trkpt lat="45.97272" lon="6.24203">
        <ele>1250.8125</ele>
        <time>2010-12-04T14:27:50Z</time>
      </trkpt>
      <trkpt lat="45.97268" lon="6.24199">
        <ele>1252.254395</ele>
        <time>2010-12-04T14:27:57Z</time>
      </trkpt>
      <trkpt lat="45.97263" lon="6.24195">
        <ele>1253.21582</ele>
        <time>2010-12-04T14:28:08Z</time>
      </trkpt>
      <trkpt lat="45.9726" lon="6.24192">
        <ele>1252.735107</ele>
        <time>2010-12-04T14:28:16Z</time>
      </trkpt>
      <trkpt lat="45.97256" lon="6.2419">
        <ele>1254.177246</ele>
        <time>2010-12-04T14:28:26Z</time>
      </trkpt>
      <trkpt lat="45.97249" lon="6.24182">
        <ele>1255.138428</ele>
        <time>2010-12-04T14:28:37Z</time>
      </trkpt>
      <trkpt lat="45.97244" lon="6.24181">
        <ele>1256.099609</ele>
        <time>2010-12-04T14:28:47Z</time>
      </trkpt>
      <trkpt lat="45.97239" lon="6.24177">
        <ele>1257.061035</ele>
        <time>2010-12-04T14:28:56Z</time>
      </trkpt>
      <trkpt lat="45.97233" lon="6.24175">
        <ele>1257.541748</ele>
        <time>2010-12-04T14:29:09Z</time>
      </trkpt>
      <trkpt lat="45.97227" lon="6.24171">
        <ele>1258.50293</ele>
        <time>2010-12-04T14:29:19Z</time>
      </trkpt>
      <trkpt lat="45.97222" lon="6.24168">
        <ele>1259.944824</ele>
        <time>2010-12-04T14:29:28Z</time>
      </trkpt>
      <trkpt lat="45.97216" lon="6.24165">
        <ele>1261.387207</ele>
        <time>2010-12-04T14:29:40Z</time>
      </trkpt>
      <trkpt lat="45.97211" lon="6.24162">
        <ele>1263.309814</ele>
        <time>2010-12-04T14:29:48Z</time>
      </trkpt>
      <trkpt lat="45.97207" lon="6.2416">
        <ele>1263.309814</ele>
        <time>2010-12-04T14:29:59Z</time>
      </trkpt>
      <trkpt lat="45.972" lon="6.2416">
        <ele>1264.751709</ele>
        <time>2010-12-04T14:30:11Z</time>
      </trkpt>
      <trkpt lat="45.97195" lon="6.24157">
        <ele>1265.232422</ele>
        <time>2010-12-04T14:30:21Z</time>
      </trkpt>
      <trkpt lat="45.97189" lon="6.24154">
        <ele>1265.713135</ele>
        <time>2010-12-04T14:30:32Z</time>
      </trkpt>
      <trkpt lat="45.97183" lon="6.24152">
        <ele>1266.674316</ele>
        <time>2010-12-04T14:30:41Z</time>
      </trkpt>
      <trkpt lat="45.9718" lon="6.2415">
        <ele>1267.155029</ele>
        <time>2010-12-04T14:30:49Z</time>
      </trkpt>
      <trkpt lat="45.97175" lon="6.24149">
        <ele>1269.077637</ele>
        <time>2010-12-04T14:30:59Z</time>
      </trkpt>
      <trkpt lat="45.9717" lon="6.24144">
        <ele>1268.596924</ele>
        <time>2010-12-04T14:31:07Z</time>
      </trkpt>
      <trkpt lat="45.97166" lon="6.24138">
        <ele>1269.55835</ele>
        <time>2010-12-04T14:31:18Z</time>
      </trkpt>
      <trkpt lat="45.97162" lon="6.24137">
        <ele>1269.55835</ele>
        <time>2010-12-04T14:31:27Z</time>
      </trkpt>
      <trkpt lat="45.97156" lon="6.24132">
        <ele>1270.519531</ele>
        <time>2010-12-04T14:31:38Z</time>
      </trkpt>
      <trkpt lat="45.97151" lon="6.24131">
        <ele>1273.403564</ele>
        <time>2010-12-04T14:31:49Z</time>
      </trkpt>
      <trkpt lat="45.97143" lon="6.24123">
        <ele>1274.364746</ele>
        <time>2010-12-04T14:31:59Z</time>
      </trkpt>
      <trkpt lat="45.97138" lon="6.24119">
        <ele>1273.884033</ele>
        <time>2010-12-04T14:32:08Z</time>
      </trkpt>
      <trkpt lat="45.97132" lon="6.24117">
        <ele>1276.287598</ele>
        <time>2010-12-04T14:32:19Z</time>
      </trkpt>
      <trkpt lat="45.97126" lon="6.24112">
        <ele>1278.210205</ele>
        <time>2010-12-04T14:32:31Z</time>
      </trkpt>
      <trkpt lat="45.97122" lon="6.2411">
        <ele>1278.690918</ele>
        <time>2010-12-04T14:32:41Z</time>
      </trkpt>
      <trkpt lat="45.97117" lon="6.24109">
        <ele>1279.6521</ele>
        <time>2010-12-04T14:32:51Z</time>
      </trkpt>
      <trkpt lat="45.97113" lon="6.24107">
        <ele>1281.094238</ele>
        <time>2010-12-04T14:33:01Z</time>
      </trkpt>
      <trkpt lat="45.97108" lon="6.24105">
        <ele>1282.05542</ele>
        <time>2010-12-04T14:33:12Z</time>
      </trkpt>
      <trkpt lat="45.97102" lon="6.24102">
        <ele>1282.536133</ele>
        <time>2010-12-04T14:33:21Z</time>
      </trkpt>
      <trkpt lat="45.97096" lon="6.24101">
        <ele>1283.016602</ele>
        <time>2010-12-04T14:33:33Z</time>
      </trkpt>
      <trkpt lat="45.97092" lon="6.24099">
        <ele>1283.497314</ele>
        <time>2010-12-04T14:33:41Z</time>
      </trkpt>
      <trkpt lat="45.97086" lon="6.24098">
        <ele>1284.939453</ele>
        <time>2010-12-04T14:33:52Z</time>
      </trkpt>
      <trkpt lat="45.97078" lon="6.24096">
        <ele>1286.381348</ele>
        <time>2010-12-04T14:34:02Z</time>
      </trkpt>
      <trkpt lat="45.97073" lon="6.24096">
        <ele>1286.381348</ele>
        <time>2010-12-04T14:34:12Z</time>
      </trkpt>
      <trkpt lat="45.97065" lon="6.24099">
        <ele>1287.823242</ele>
        <time>2010-12-04T14:34:23Z</time>
      </trkpt>
      <trkpt lat="45.97058" lon="6.24102">
        <ele>1288.303955</ele>
        <time>2010-12-04T14:34:36Z</time>
      </trkpt>
      <trkpt lat="45.97054" lon="6.24103">
        <ele>1290.707031</ele>
        <time>2010-12-04T14:34:47Z</time>
      </trkpt>
      <trkpt lat="45.97049" lon="6.24107">
        <ele>1290.226563</ele>
        <time>2010-12-04T14:34:58Z</time>
      </trkpt>
      <trkpt lat="45.97042" lon="6.24104">
        <ele>1292.149414</ele>
        <time>2010-12-04T14:35:09Z</time>
      </trkpt>
      <trkpt lat="45.97035" lon="6.24101">
        <ele>1291.187744</ele>
        <time>2010-12-04T14:35:19Z</time>
      </trkpt>
      <trkpt lat="45.97028" lon="6.24099">
        <ele>1290.707031</ele>
        <time>2010-12-04T14:35:29Z</time>
      </trkpt>
      <trkpt lat="45.97024" lon="6.24098">
        <ele>1290.707031</ele>
        <time>2010-12-04T14:35:37Z</time>
      </trkpt>
      <trkpt lat="45.97022" lon="6.24091">
        <ele>1291.187744</ele>
        <time>2010-12-04T14:35:45Z</time>
      </trkpt>
      <trkpt lat="45.97018" lon="6.24084">
        <ele>1290.707031</ele>
        <time>2010-12-04T14:35:55Z</time>
      </trkpt>
      <trkpt lat="45.97013" lon="6.24081">
        <ele>1293.591309</ele>
        <time>2010-12-04T14:36:04Z</time>
      </trkpt>
      <trkpt lat="45.97008" lon="6.24078">
        <ele>1294.072021</ele>
        <time>2010-12-04T14:36:15Z</time>
      </trkpt>
      <trkpt lat="45.97004" lon="6.24075">
        <ele>1295.513916</ele>
        <time>2010-12-04T14:36:26Z</time>
      </trkpt>
      <trkpt lat="45.96998" lon="6.2407">
        <ele>1296.475342</ele>
        <time>2010-12-04T14:36:37Z</time>
      </trkpt>
      <trkpt lat="45.96991" lon="6.24064">
        <ele>1297.436523</ele>
        <time>2010-12-04T14:36:48Z</time>
      </trkpt>
      <trkpt lat="45.96985" lon="6.24061">
        <ele>1297.917236</ele>
        <time>2010-12-04T14:37:00Z</time>
      </trkpt>
      <trkpt lat="45.9698" lon="6.24059">
        <ele>1299.359131</ele>
        <time>2010-12-04T14:37:11Z</time>
      </trkpt>
      <trkpt lat="45.96975" lon="6.24059">
        <ele>1299.839844</ele>
        <time>2010-12-04T14:37:21Z</time>
      </trkpt>
      <trkpt lat="45.96969" lon="6.24058">
        <ele>1301.762451</ele>
        <time>2010-12-04T14:37:34Z</time>
      </trkpt>
      <trkpt lat="45.96964" lon="6.24054">
        <ele>1301.762451</ele>
        <time>2010-12-04T14:37:43Z</time>
      </trkpt>
      <trkpt lat="45.96957" lon="6.24047">
        <ele>1302.723633</ele>
        <time>2010-12-04T14:37:54Z</time>
      </trkpt>
      <trkpt lat="45.96952" lon="6.24043">
        <ele>1303.204346</ele>
        <time>2010-12-04T14:38:05Z</time>
      </trkpt>
      <trkpt lat="45.96949" lon="6.24039">
        <ele>1304.165771</ele>
        <time>2010-12-04T14:38:15Z</time>
      </trkpt>
      <trkpt lat="45.96946" lon="6.24037">
        <ele>1304.64624</ele>
        <time>2010-12-04T14:38:25Z</time>
      </trkpt>
      <trkpt lat="45.96942" lon="6.24033">
        <ele>1305.126953</ele>
        <time>2010-12-04T14:38:35Z</time>
      </trkpt>
      <trkpt lat="45.96953" lon="6.24032">
        <ele>1307.049561</ele>
        <time>2010-12-04T14:43:58Z</time>
      </trkpt>
      <trkpt lat="45.96952" lon="6.24037">
        <ele>1307.530273</ele>
        <time>2010-12-04T14:44:05Z</time>
      </trkpt>
      <trkpt lat="45.96951" lon="6.24042">
        <ele>1308.01123</ele>
        <time>2010-12-04T14:44:11Z</time>
      </trkpt>
      <trkpt lat="45.96953" lon="6.24047">
        <ele>1309.453125</ele>
        <time>2010-12-04T14:44:19Z</time>
      </trkpt>
      <trkpt lat="45.96955" lon="6.24052">
        <ele>1310.89502</ele>
        <time>2010-12-04T14:44:27Z</time>
      </trkpt>
      <trkpt lat="45.96954" lon="6.24056">
        <ele>1311.375732</ele>
        <time>2010-12-04T14:44:34Z</time>
      </trkpt>
      <trkpt lat="45.96958" lon="6.24063">
        <ele>1311.856445</ele>
        <time>2010-12-04T14:44:44Z</time>
      </trkpt>
      <trkpt lat="45.96962" lon="6.24069">
        <ele>1312.336914</ele>
        <time>2010-12-04T14:44:51Z</time>
      </trkpt>
      <trkpt lat="45.96964" lon="6.24073">
        <ele>1312.817627</ele>
        <time>2010-12-04T14:44:59Z</time>
      </trkpt>
      <trkpt lat="45.96967" lon="6.24078">
        <ele>1313.778809</ele>
        <time>2010-12-04T14:45:08Z</time>
      </trkpt>
      <trkpt lat="45.96969" lon="6.24079">
        <ele>1315.220947</ele>
        <time>2010-12-04T14:45:11Z</time>
      </trkpt>
      <trkpt lat="45.9697" lon="6.24084">
        <ele>1315.220947</ele>
        <time>2010-12-04T14:45:18Z</time>
      </trkpt>
      <trkpt lat="45.96972" lon="6.24087">
        <ele>1315.70166</ele>
        <time>2010-12-04T14:45:25Z</time>
      </trkpt>
      <trkpt lat="45.96973" lon="6.24094">
        <ele>1316.182129</ele>
        <time>2010-12-04T14:45:34Z</time>
      </trkpt>
      <trkpt lat="45.96977" lon="6.24099">
        <ele>1318.104736</ele>
        <time>2010-12-04T14:45:43Z</time>
      </trkpt>
      <trkpt lat="45.96982" lon="6.24105">
        <ele>1319.066162</ele>
        <time>2010-12-04T14:45:55Z</time>
      </trkpt>
      <trkpt lat="45.96986" lon="6.2411">
        <ele>1319.546875</ele>
        <time>2010-12-04T14:46:03Z</time>
      </trkpt>
      <trkpt lat="45.96988" lon="6.24118">
        <ele>1321.949951</ele>
        <time>2010-12-04T14:46:14Z</time>
      </trkpt>
      <trkpt lat="45.96989" lon="6.24125">
        <ele>1321.949951</ele>
        <time>2010-12-04T14:46:23Z</time>
      </trkpt>
      <trkpt lat="45.9699" lon="6.2413">
        <ele>1322.430664</ele>
        <time>2010-12-04T14:46:30Z</time>
      </trkpt>
      <trkpt lat="45.96992" lon="6.24136">
        <ele>1323.39209</ele>
        <time>2010-12-04T14:46:38Z</time>
      </trkpt>
      <trkpt lat="45.96993" lon="6.24141">
        <ele>1324.353516</ele>
        <time>2010-12-04T14:46:46Z</time>
      </trkpt>
      <trkpt lat="45.96997" lon="6.24145">
        <ele>1325.79541</ele>
        <time>2010-12-04T14:46:53Z</time>
      </trkpt>
      <trkpt lat="45.96992" lon="6.24149">
        <ele>1327.718018</ele>
        <time>2010-12-04T14:47:05Z</time>
      </trkpt>
      <trkpt lat="45.96988" lon="6.24146">
        <ele>1327.718018</ele>
        <time>2010-12-04T14:47:13Z</time>
      </trkpt>
      <trkpt lat="45.96985" lon="6.24141">
        <ele>1328.19873</ele>
        <time>2010-12-04T14:47:24Z</time>
      </trkpt>
      <trkpt lat="45.96981" lon="6.24137">
        <ele>1329.159912</ele>
        <time>2010-12-04T14:47:33Z</time>
      </trkpt>
      <trkpt lat="45.96977" lon="6.24132">
        <ele>1329.640625</ele>
        <time>2010-12-04T14:47:43Z</time>
      </trkpt>
      <trkpt lat="45.9697" lon="6.24125">
        <ele>1331.563232</ele>
        <time>2010-12-04T14:47:56Z</time>
      </trkpt>
      <trkpt lat="45.96965" lon="6.24124">
        <ele>1332.043945</ele>
        <time>2010-12-04T14:48:07Z</time>
      </trkpt>
      <trkpt lat="45.96961" lon="6.24122">
        <ele>1333.005127</ele>
        <time>2010-12-04T14:48:16Z</time>
      </trkpt>
      <trkpt lat="45.96958" lon="6.24118">
        <ele>1333.966553</ele>
        <time>2010-12-04T14:48:24Z</time>
      </trkpt>
      <trkpt lat="45.96954" lon="6.24114">
        <ele>1334.447266</ele>
        <time>2010-12-04T14:48:32Z</time>
      </trkpt>
      <trkpt lat="45.96946" lon="6.24107">
        <ele>1334.447266</ele>
        <time>2010-12-04T14:48:42Z</time>
      </trkpt>
      <trkpt lat="45.96941" lon="6.24106">
        <ele>1335.408447</ele>
        <time>2010-12-04T14:48:52Z</time>
      </trkpt>
      <trkpt lat="45.96937" lon="6.24104">
        <ele>1336.369873</ele>
        <time>2010-12-04T14:49:00Z</time>
      </trkpt>
      <trkpt lat="45.96933" lon="6.24096">
        <ele>1337.331055</ele>
        <time>2010-12-04T14:49:10Z</time>
      </trkpt>
      <trkpt lat="45.96928" lon="6.24088">
        <ele>1337.331055</ele>
        <time>2010-12-04T14:49:18Z</time>
      </trkpt>
      <trkpt lat="45.96925" lon="6.24087">
        <ele>1339.253662</ele>
        <time>2010-12-04T14:49:26Z</time>
      </trkpt>
      <trkpt lat="45.96923" lon="6.24084">
        <ele>1339.734375</ele>
        <time>2010-12-04T14:49:34Z</time>
      </trkpt>
      <trkpt lat="45.9692" lon="6.24082">
        <ele>1341.176514</ele>
        <time>2010-12-04T14:49:43Z</time>
      </trkpt>
      <trkpt lat="45.96921" lon="6.24091">
        <ele>1342.618652</ele>
        <time>2010-12-04T14:49:50Z</time>
      </trkpt>
      <trkpt lat="45.96923" lon="6.24096">
        <ele>1342.618652</ele>
        <time>2010-12-04T14:49:57Z</time>
      </trkpt>
      <trkpt lat="45.96925" lon="6.24101">
        <ele>1343.579834</ele>
        <time>2010-12-04T14:50:03Z</time>
      </trkpt>
      <trkpt lat="45.96928" lon="6.24106">
        <ele>1344.060547</ele>
        <time>2010-12-04T14:50:12Z</time>
      </trkpt>
      <trkpt lat="45.96932" lon="6.2411">
        <ele>1345.021729</ele>
        <time>2010-12-04T14:50:20Z</time>
      </trkpt>
      <trkpt lat="45.96935" lon="6.24116">
        <ele>1346.463867</ele>
        <time>2010-12-04T14:50:29Z</time>
      </trkpt>
      <trkpt lat="45.96938" lon="6.24121">
        <ele>1347.425049</ele>
        <time>2010-12-04T14:50:38Z</time>
      </trkpt>
      <trkpt lat="45.96939" lon="6.24125">
        <ele>1348.866943</ele>
        <time>2010-12-04T14:50:47Z</time>
      </trkpt>
      <trkpt lat="45.96941" lon="6.24128">
        <ele>1349.828369</ele>
        <time>2010-12-04T14:50:55Z</time>
      </trkpt>
      <trkpt lat="45.96942" lon="6.24131">
        <ele>1350.309082</ele>
        <time>2010-12-04T14:51:01Z</time>
      </trkpt>
      <trkpt lat="45.96945" lon="6.24137">
        <ele>1351.750977</ele>
        <time>2010-12-04T14:51:10Z</time>
      </trkpt>
      <trkpt lat="45.96949" lon="6.24143">
        <ele>1352.231445</ele>
        <time>2010-12-04T14:51:19Z</time>
      </trkpt>
      <trkpt lat="45.96951" lon="6.24149">
        <ele>1353.673584</ele>
        <time>2010-12-04T14:51:26Z</time>
      </trkpt>
      <trkpt lat="45.96955" lon="6.24153">
        <ele>1354.154297</ele>
        <time>2010-12-04T14:51:33Z</time>
      </trkpt>
      <trkpt lat="45.96956" lon="6.24159">
        <ele>1355.115479</ele>
        <time>2010-12-04T14:51:42Z</time>
      </trkpt>
      <trkpt lat="45.96958" lon="6.24164">
        <ele>1356.076904</ele>
        <time>2010-12-04T14:51:51Z</time>
      </trkpt>
      <trkpt lat="45.96963" lon="6.2417">
        <ele>1357.519043</ele>
        <time>2010-12-04T14:52:01Z</time>
      </trkpt>
      <trkpt lat="45.96964" lon="6.24175">
        <ele>1358.480225</ele>
        <time>2010-12-04T14:52:09Z</time>
      </trkpt>
      <trkpt lat="45.96958" lon="6.24178">
        <ele>1360.402832</ele>
        <time>2010-12-04T14:52:21Z</time>
      </trkpt>
      <trkpt lat="45.96954" lon="6.24172">
        <ele>1361.844971</ele>
        <time>2010-12-04T14:52:30Z</time>
      </trkpt>
      <trkpt lat="45.9695" lon="6.24169">
        <ele>1362.325439</ele>
        <time>2010-12-04T14:52:39Z</time>
      </trkpt>
      <trkpt lat="45.96942" lon="6.24163">
        <ele>1363.286865</ele>
        <time>2010-12-04T14:52:49Z</time>
      </trkpt>
      <trkpt lat="45.96938" lon="6.24162">
        <ele>1364.72876</ele>
        <time>2010-12-04T14:52:58Z</time>
      </trkpt>
      <trkpt lat="45.96932" lon="6.24159">
        <ele>1365.690186</ele>
        <time>2010-12-04T14:53:09Z</time>
      </trkpt>
      <trkpt lat="45.96928" lon="6.24155">
        <ele>1367.13208</ele>
        <time>2010-12-04T14:53:21Z</time>
      </trkpt>
      <trkpt lat="45.96922" lon="6.24146">
        <ele>1367.612549</ele>
        <time>2010-12-04T14:53:32Z</time>
      </trkpt>
      <trkpt lat="45.96916" lon="6.24143">
        <ele>1368.573975</ele>
        <time>2010-12-04T14:53:42Z</time>
      </trkpt>
      <trkpt lat="45.96911" lon="6.24143">
        <ele>1369.054688</ele>
        <time>2010-12-04T14:53:53Z</time>
      </trkpt>
      <trkpt lat="45.96907" lon="6.24138">
        <ele>1370.496582</ele>
        <time>2010-12-04T14:54:01Z</time>
      </trkpt>
      <trkpt lat="45.96904" lon="6.24133">
        <ele>1370.977295</ele>
        <time>2010-12-04T14:54:09Z</time>
      </trkpt>
      <trkpt lat="45.96902" lon="6.2413">
        <ele>1371.938477</ele>
        <time>2010-12-04T14:54:17Z</time>
      </trkpt>
      <trkpt lat="45.96902" lon="6.24134">
        <ele>1372.900146</ele>
        <time>2010-12-04T14:54:24Z</time>
      </trkpt>
      <trkpt lat="45.96908" lon="6.24142">
        <ele>1374.822754</ele>
        <time>2010-12-04T14:54:34Z</time>
      </trkpt>
      <trkpt lat="45.96911" lon="6.24148">
        <ele>1374.822754</ele>
        <time>2010-12-04T14:54:44Z</time>
      </trkpt>
      <trkpt lat="45.96913" lon="6.24152">
        <ele>1375.783936</ele>
        <time>2010-12-04T14:54:51Z</time>
      </trkpt>
      <trkpt lat="45.96917" lon="6.24159">
        <ele>1377.706543</ele>
        <time>2010-12-04T14:55:02Z</time>
      </trkpt>
      <trkpt lat="45.96922" lon="6.24164">
        <ele>1379.148438</ele>
        <time>2010-12-04T14:55:11Z</time>
      </trkpt>
      <trkpt lat="45.96923" lon="6.24168">
        <ele>1379.62915</ele>
        <time>2010-12-04T14:55:18Z</time>
      </trkpt>
      <trkpt lat="45.96924" lon="6.24172">
        <ele>1379.62915</ele>
        <time>2010-12-04T14:55:27Z</time>
      </trkpt>
      <trkpt lat="45.96924" lon="6.24176">
        <ele>1380.590576</ele>
        <time>2010-12-04T14:55:34Z</time>
      </trkpt>
      <trkpt lat="45.96925" lon="6.24184">
        <ele>1381.551758</ele>
        <time>2010-12-04T14:55:43Z</time>
      </trkpt>
      <trkpt lat="45.96926" lon="6.2419">
        <ele>1382.032471</ele>
        <time>2010-12-04T14:55:52Z</time>
      </trkpt>
      <trkpt lat="45.96928" lon="6.24197">
        <ele>1383.474365</ele>
        <time>2010-12-04T14:56:02Z</time>
      </trkpt>
      <trkpt lat="45.96931" lon="6.24202">
        <ele>1384.435791</ele>
        <time>2010-12-04T14:56:09Z</time>
      </trkpt>
      <trkpt lat="45.96933" lon="6.2421">
        <ele>1385.396973</ele>
        <time>2010-12-04T14:56:20Z</time>
      </trkpt>
      <trkpt lat="45.96935" lon="6.24213">
        <ele>1385.877686</ele>
        <time>2010-12-04T14:56:26Z</time>
      </trkpt>
      <trkpt lat="45.96936" lon="6.24217">
        <ele>1386.838867</ele>
        <time>2010-12-04T14:56:33Z</time>
      </trkpt>
      <trkpt lat="45.9694" lon="6.24222">
        <ele>1386.838867</ele>
        <time>2010-12-04T14:56:40Z</time>
      </trkpt>
      <trkpt lat="45.96942" lon="6.24228">
        <ele>1388.28125</ele>
        <time>2010-12-04T14:56:48Z</time>
      </trkpt>
      <trkpt lat="45.96946" lon="6.24232">
        <ele>1389.242432</ele>
        <time>2010-12-04T14:56:55Z</time>
      </trkpt>
      <trkpt lat="45.96949" lon="6.24236">
        <ele>1388.761963</ele>
        <time>2010-12-04T14:57:03Z</time>
      </trkpt>
      <trkpt lat="45.96949" lon="6.24241">
        <ele>1390.203857</ele>
        <time>2010-12-04T14:57:11Z</time>
      </trkpt>
      <trkpt lat="45.9695" lon="6.24246">
        <ele>1391.165039</ele>
        <time>2010-12-04T14:57:18Z</time>
      </trkpt>
      <trkpt lat="45.96956" lon="6.24251">
        <ele>1392.126465</ele>
        <time>2010-12-04T14:57:28Z</time>
      </trkpt>
      <trkpt lat="45.96959" lon="6.24255">
        <ele>1393.568359</ele>
        <time>2010-12-04T14:57:35Z</time>
      </trkpt>
      <trkpt lat="45.96962" lon="6.24256">
        <ele>1393.087646</ele>
        <time>2010-12-04T14:57:42Z</time>
      </trkpt>
      <trkpt lat="45.96965" lon="6.24262">
        <ele>1395.010254</ele>
        <time>2010-12-04T14:57:53Z</time>
      </trkpt>
      <trkpt lat="45.96965" lon="6.24262">
        <ele>1395.97168</ele>
        <time>2010-12-04T14:57:59Z</time>
      </trkpt>
      <trkpt lat="45.96966" lon="6.24261">
        <ele>1397.894287</ele>
        <time>2010-12-04T14:58:07Z</time>
      </trkpt>
      <trkpt lat="45.9697" lon="6.24264">
        <ele>1397.894287</ele>
        <time>2010-12-04T14:58:17Z</time>
      </trkpt>
      <trkpt lat="45.96975" lon="6.24267">
        <ele>1398.855469</ele>
        <time>2010-12-04T14:58:24Z</time>
      </trkpt>
      <trkpt lat="45.9698" lon="6.24271">
        <ele>1398.855469</ele>
        <time>2010-12-04T14:58:30Z</time>
      </trkpt>
      <trkpt lat="45.96983" lon="6.24273">
        <ele>1398.374756</ele>
        <time>2010-12-04T14:58:37Z</time>
      </trkpt>
      <trkpt lat="45.96989" lon="6.24274">
        <ele>1399.816895</ele>
        <time>2010-12-04T14:58:51Z</time>
      </trkpt>
      <trkpt lat="45.96995" lon="6.24283">
        <ele>1400.297607</ele>
        <time>2010-12-04T14:59:00Z</time>
      </trkpt>
      <trkpt lat="45.96994" lon="6.24286">
        <ele>1401.258789</ele>
        <time>2010-12-04T14:59:09Z</time>
      </trkpt>
      <trkpt lat="45.97001" lon="6.2429">
        <ele>1401.739502</ele>
        <time>2010-12-04T14:59:21Z</time>
      </trkpt>
      <trkpt lat="45.97007" lon="6.24293">
        <ele>1403.181396</ele>
        <time>2010-12-04T14:59:35Z</time>
      </trkpt>
      <trkpt lat="45.9701" lon="6.24294">
        <ele>1403.181396</ele>
        <time>2010-12-04T14:59:43Z</time>
      </trkpt>
      <trkpt lat="45.97009" lon="6.24295">
        <ele>1405.104248</ele>
        <time>2010-12-04T14:59:50Z</time>
      </trkpt>
      <trkpt lat="45.97006" lon="6.24298">
        <ele>1404.623535</ele>
        <time>2010-12-04T14:59:58Z</time>
      </trkpt>
      <trkpt lat="45.97002" lon="6.243">
        <ele>1407.026855</ele>
        <time>2010-12-04T15:00:06Z</time>
      </trkpt>
      <trkpt lat="45.96998" lon="6.24301">
        <ele>1406.546143</ele>
        <time>2010-12-04T15:00:15Z</time>
      </trkpt>
      <trkpt lat="45.96992" lon="6.24304">
        <ele>1407.988281</ele>
        <time>2010-12-04T15:00:27Z</time>
      </trkpt>
      <trkpt lat="45.96987" lon="6.24304">
        <ele>1408.949463</ele>
        <time>2010-12-04T15:00:36Z</time>
      </trkpt>
      <trkpt lat="45.96982" lon="6.24303">
        <ele>1408.949463</ele>
        <time>2010-12-04T15:00:44Z</time>
      </trkpt>
      <trkpt lat="45.96978" lon="6.24305">
        <ele>1409.430176</ele>
        <time>2010-12-04T15:00:52Z</time>
      </trkpt>
      <trkpt lat="45.96974" lon="6.24307">
        <ele>1409.910645</ele>
        <time>2010-12-04T15:01:01Z</time>
      </trkpt>
      <trkpt lat="45.96969" lon="6.24309">
        <ele>1409.910645</ele>
        <time>2010-12-04T15:01:09Z</time>
      </trkpt>
      <trkpt lat="45.96964" lon="6.24308">
        <ele>1410.391357</ele>
        <time>2010-12-04T15:01:18Z</time>
      </trkpt>
      <trkpt lat="45.96959" lon="6.24305">
        <ele>1411.833496</ele>
        <time>2010-12-04T15:01:28Z</time>
      </trkpt>
      <trkpt lat="45.96954" lon="6.24304">
        <ele>1413.275391</ele>
        <time>2010-12-04T15:01:37Z</time>
      </trkpt>
      <trkpt lat="45.96949" lon="6.24306">
        <ele>1414.717285</ele>
        <time>2010-12-04T15:01:49Z</time>
      </trkpt>
      <trkpt lat="45.96944" lon="6.24306">
        <ele>1414.717285</ele>
        <time>2010-12-04T15:01:58Z</time>
      </trkpt>
      <trkpt lat="45.96937" lon="6.24306">
        <ele>1416.639893</ele>
        <time>2010-12-04T15:02:10Z</time>
      </trkpt>
      <trkpt lat="45.96932" lon="6.24303">
        <ele>1417.120605</ele>
        <time>2010-12-04T15:02:19Z</time>
      </trkpt>
      <trkpt lat="45.96927" lon="6.24299">
        <ele>1417.120605</ele>
        <time>2010-12-04T15:02:27Z</time>
      </trkpt>
      <trkpt lat="45.96923" lon="6.24298">
        <ele>1418.5625</ele>
        <time>2010-12-04T15:02:36Z</time>
      </trkpt>
      <trkpt lat="45.9692" lon="6.24295">
        <ele>1419.043213</ele>
        <time>2010-12-04T15:02:43Z</time>
      </trkpt>
      <trkpt lat="45.96915" lon="6.24293">
        <ele>1419.043213</ele>
        <time>2010-12-04T15:02:57Z</time>
      </trkpt>
      <trkpt lat="45.9691" lon="6.24288">
        <ele>1420.966064</ele>
        <time>2010-12-04T15:03:08Z</time>
      </trkpt>
      <trkpt lat="45.96907" lon="6.24283">
        <ele>1421.927246</ele>
        <time>2010-12-04T15:03:16Z</time>
      </trkpt>
      <trkpt lat="45.96903" lon="6.24276">
        <ele>1421.446533</ele>
        <time>2010-12-04T15:03:26Z</time>
      </trkpt>
      <trkpt lat="45.96899" lon="6.24271">
        <ele>1421.927246</ele>
        <time>2010-12-04T15:03:34Z</time>
      </trkpt>
      <trkpt lat="45.96896" lon="6.24265">
        <ele>1423.849854</ele>
        <time>2010-12-04T15:03:45Z</time>
      </trkpt>
      <trkpt lat="45.96892" lon="6.2426">
        <ele>1425.291748</ele>
        <time>2010-12-04T15:03:55Z</time>
      </trkpt>
      <trkpt lat="45.96889" lon="6.24254">
        <ele>1426.253174</ele>
        <time>2010-12-04T15:04:04Z</time>
      </trkpt>
      <trkpt lat="45.96885" lon="6.24244">
        <ele>1427.2146</ele>
        <time>2010-12-04T15:04:13Z</time>
      </trkpt>
      <trkpt lat="45.9688" lon="6.24236">
        <ele>1427.695068</ele>
        <time>2010-12-04T15:04:23Z</time>
      </trkpt>
      <trkpt lat="45.96875" lon="6.24234">
        <ele>1427.695068</ele>
        <time>2010-12-04T15:04:31Z</time>
      </trkpt>
      <trkpt lat="45.96867" lon="6.2423">
        <ele>1430.579102</ele>
        <time>2010-12-04T15:04:46Z</time>
      </trkpt>
      <trkpt lat="45.96863" lon="6.2423">
        <ele>1431.540283</ele>
        <time>2010-12-04T15:04:54Z</time>
      </trkpt>
      <trkpt lat="45.9686" lon="6.24229">
        <ele>1431.540283</ele>
        <time>2010-12-04T15:05:04Z</time>
      </trkpt>
      <trkpt lat="45.96865" lon="6.24234">
        <ele>1432.501709</ele>
        <time>2010-12-04T15:05:13Z</time>
      </trkpt>
      <trkpt lat="45.96869" lon="6.24236">
        <ele>1432.982178</ele>
        <time>2010-12-04T15:05:20Z</time>
      </trkpt>
      <trkpt lat="45.96873" lon="6.2424">
        <ele>1433.943604</ele>
        <time>2010-12-04T15:05:28Z</time>
      </trkpt>
      <trkpt lat="45.96876" lon="6.24246">
        <ele>1434.424316</ele>
        <time>2010-12-04T15:05:38Z</time>
      </trkpt>
      <trkpt lat="45.96883" lon="6.24256">
        <ele>1435.866211</ele>
        <time>2010-12-04T15:05:54Z</time>
      </trkpt>
      <trkpt lat="45.96885" lon="6.24262">
        <ele>1437.30835</ele>
        <time>2010-12-04T15:06:02Z</time>
      </trkpt>
      <trkpt lat="45.96888" lon="6.24265">
        <ele>1437.30835</ele>
        <time>2010-12-04T15:06:09Z</time>
      </trkpt>
      <trkpt lat="45.96888" lon="6.24271">
        <ele>1437.789063</ele>
        <time>2010-12-04T15:06:16Z</time>
      </trkpt>
      <trkpt lat="45.96892" lon="6.24276">
        <ele>1438.269775</ele>
        <time>2010-12-04T15:06:23Z</time>
      </trkpt>
      <trkpt lat="45.96895" lon="6.24281">
        <ele>1438.750488</ele>
        <time>2010-12-04T15:06:30Z</time>
      </trkpt>
      <trkpt lat="45.96895" lon="6.24288">
        <ele>1440.192383</ele>
        <time>2010-12-04T15:06:38Z</time>
      </trkpt>
      <trkpt lat="45.96898" lon="6.24298">
        <ele>1440.672852</ele>
        <time>2010-12-04T15:06:48Z</time>
      </trkpt>
      <trkpt lat="45.96896" lon="6.24304">
        <ele>1441.634277</ele>
        <time>2010-12-04T15:06:56Z</time>
      </trkpt>
      <trkpt lat="45.96894" lon="6.24307">
        <ele>1443.076172</ele>
        <time>2010-12-04T15:07:04Z</time>
      </trkpt>
      <trkpt lat="45.96895" lon="6.24313">
        <ele>1444.518066</ele>
        <time>2010-12-04T15:07:16Z</time>
      </trkpt>
      <trkpt lat="45.96899" lon="6.24319">
        <ele>1445.479492</ele>
        <time>2010-12-04T15:07:22Z</time>
      </trkpt>
      <trkpt lat="45.969" lon="6.24323">
        <ele>1445.960205</ele>
        <time>2010-12-04T15:07:30Z</time>
      </trkpt>
      <trkpt lat="45.96904" lon="6.24327">
        <ele>1445.960205</ele>
        <time>2010-12-04T15:07:36Z</time>
      </trkpt>
      <trkpt lat="45.96907" lon="6.24333">
        <ele>1446.921387</ele>
        <time>2010-12-04T15:07:45Z</time>
      </trkpt>
      <trkpt lat="45.96908" lon="6.24339">
        <ele>1448.843994</ele>
        <time>2010-12-04T15:07:54Z</time>
      </trkpt>
      <trkpt lat="45.96909" lon="6.2434">
        <ele>1449.324707</ele>
        <time>2010-12-04T15:08:04Z</time>
      </trkpt>
      <trkpt lat="45.96911" lon="6.24346">
        <ele>1449.80542</ele>
        <time>2010-12-04T15:08:12Z</time>
      </trkpt>
      <trkpt lat="45.96915" lon="6.24349">
        <ele>1449.80542</ele>
        <time>2010-12-04T15:08:18Z</time>
      </trkpt>
      <trkpt lat="45.96921" lon="6.24352">
        <ele>1449.80542</ele>
        <time>2010-12-04T15:08:28Z</time>
      </trkpt>
      <trkpt lat="45.96925" lon="6.24356">
        <ele>1450.766602</ele>
        <time>2010-12-04T15:08:37Z</time>
      </trkpt>
      <trkpt lat="45.9693" lon="6.24358">
        <ele>1450.766602</ele>
        <time>2010-12-04T15:08:46Z</time>
      </trkpt>
      <trkpt lat="45.96933" lon="6.2436">
        <ele>1451.728027</ele>
        <time>2010-12-04T15:08:54Z</time>
      </trkpt>
      <trkpt lat="45.9694" lon="6.2436">
        <ele>1451.247314</ele>
        <time>2010-12-04T15:09:05Z</time>
      </trkpt>
      <trkpt lat="45.96942" lon="6.24357">
        <ele>1451.728027</ele>
        <time>2010-12-04T15:09:14Z</time>
      </trkpt>
      <trkpt lat="45.96945" lon="6.24358">
        <ele>1452.20874</ele>
        <time>2010-12-04T15:09:22Z</time>
      </trkpt>
      <trkpt lat="45.9695" lon="6.24363">
        <ele>1453.170166</ele>
        <time>2010-12-04T15:09:30Z</time>
      </trkpt>
      <trkpt lat="45.96952" lon="6.24367">
        <ele>1453.650879</ele>
        <time>2010-12-04T15:09:37Z</time>
      </trkpt>
      <trkpt lat="45.96956" lon="6.24374">
        <ele>1454.612061</ele>
        <time>2010-12-04T15:09:45Z</time>
      </trkpt>
      <trkpt lat="45.9696" lon="6.24376">
        <ele>1455.573486</ele>
        <time>2010-12-04T15:09:56Z</time>
      </trkpt>
      <trkpt lat="45.96951" lon="6.24394">
        <ele>1457.015381</ele>
        <time>2010-12-04T15:21:36Z</time>
      </trkpt>
      <trkpt lat="45.96946" lon="6.24395">
        <ele>1457.496094</ele>
        <time>2010-12-04T15:21:45Z</time>
      </trkpt>
      <trkpt lat="45.9694" lon="6.24396">
        <ele>1458.937988</ele>
        <time>2010-12-04T15:22:02Z</time>
      </trkpt>
      <trkpt lat="45.96936" lon="6.2439">
        <ele>1460.379883</ele>
        <time>2010-12-04T15:22:11Z</time>
      </trkpt>
      <trkpt lat="45.96935" lon="6.24388">
        <ele>1462.30249</ele>
        <time>2010-12-04T15:22:18Z</time>
      </trkpt>
      <trkpt lat="45.9693" lon="6.24389">
        <ele>1462.783203</ele>
        <time>2010-12-04T15:22:26Z</time>
      </trkpt>
      <trkpt lat="45.96924" lon="6.24392">
        <ele>1464.705811</ele>
        <time>2010-12-04T15:22:39Z</time>
      </trkpt>
      <trkpt lat="45.96921" lon="6.2439">
        <ele>1466.628418</ele>
        <time>2010-12-04T15:22:51Z</time>
      </trkpt>
      <trkpt lat="45.96916" lon="6.2439">
        <ele>1468.55127</ele>
        <time>2010-12-04T15:23:06Z</time>
      </trkpt>
      <trkpt lat="45.96913" lon="6.24391">
        <ele>1468.55127</ele>
        <time>2010-12-04T15:23:14Z</time>
      </trkpt>
      <trkpt lat="45.96924" lon="6.24392">
        <ele>1470.95459</ele>
        <time>2010-12-04T15:23:35Z</time>
      </trkpt>
      <trkpt lat="45.96929" lon="6.24394">
        <ele>1472.877197</ele>
        <time>2010-12-04T15:23:48Z</time>
      </trkpt>
      <trkpt lat="45.9694" lon="6.24404">
        <ele>1475.280273</ele>
        <time>2010-12-04T15:24:12Z</time>
      </trkpt>
      <trkpt lat="45.96945" lon="6.24408">
        <ele>1475.760986</ele>
        <time>2010-12-04T15:24:20Z</time>
      </trkpt>
      <trkpt lat="45.96946" lon="6.24412">
        <ele>1477.203125</ele>
        <time>2010-12-04T15:24:32Z</time>
      </trkpt>
      <trkpt lat="45.96948" lon="6.24418">
        <ele>1478.64502</ele>
        <time>2010-12-04T15:24:43Z</time>
      </trkpt>
      <trkpt lat="45.9695" lon="6.24422">
        <ele>1479.125488</ele>
        <time>2010-12-04T15:24:51Z</time>
      </trkpt>
      <trkpt lat="45.96952" lon="6.24428">
        <ele>1481.04834</ele>
        <time>2010-12-04T15:25:03Z</time>
      </trkpt>
      <trkpt lat="45.96945" lon="6.24429">
        <ele>1482.009521</ele>
        <time>2010-12-04T15:25:16Z</time>
      </trkpt>
      <trkpt lat="45.96941" lon="6.24428">
        <ele>1483.451416</ele>
        <time>2010-12-04T15:25:26Z</time>
      </trkpt>
      <trkpt lat="45.96938" lon="6.24427">
        <ele>1484.893799</ele>
        <time>2010-12-04T15:25:35Z</time>
      </trkpt>
      <trkpt lat="45.96933" lon="6.24427">
        <ele>1486.335693</ele>
        <time>2010-12-04T15:25:45Z</time>
      </trkpt>
      <trkpt lat="45.96929" lon="6.24426">
        <ele>1486.816162</ele>
        <time>2010-12-04T15:25:53Z</time>
      </trkpt>
      <trkpt lat="45.96925" lon="6.24425">
        <ele>1486.816162</ele>
        <time>2010-12-04T15:25:59Z</time>
      </trkpt>
      <trkpt lat="45.96919" lon="6.24425">
        <ele>1488.739014</ele>
        <time>2010-12-04T15:26:09Z</time>
      </trkpt>
      <trkpt lat="45.96915" lon="6.24426">
        <ele>1490.180908</ele>
        <time>2010-12-04T15:26:17Z</time>
      </trkpt>
      <trkpt lat="45.96913" lon="6.24426">
        <ele>1490.661377</ele>
        <time>2010-12-04T15:26:23Z</time>
      </trkpt>
      <trkpt lat="45.96916" lon="6.24431">
        <ele>1492.103516</ele>
        <time>2010-12-04T15:26:33Z</time>
      </trkpt>
      <trkpt lat="45.96918" lon="6.24435">
        <ele>1492.584229</ele>
        <time>2010-12-04T15:26:40Z</time>
      </trkpt>
      <trkpt lat="45.96926" lon="6.2444">
        <ele>1493.54541</ele>
        <time>2010-12-04T15:26:53Z</time>
      </trkpt>
      <trkpt lat="45.96929" lon="6.24445">
        <ele>1495.468018</ele>
        <time>2010-12-04T15:27:02Z</time>
      </trkpt>
      <trkpt lat="45.96933" lon="6.24451">
        <ele>1495.468018</ele>
        <time>2010-12-04T15:27:11Z</time>
      </trkpt>
      <trkpt lat="45.96937" lon="6.24457">
        <ele>1496.909912</ele>
        <time>2010-12-04T15:27:21Z</time>
      </trkpt>
      <trkpt lat="45.96941" lon="6.24465">
        <ele>1496.909912</ele>
        <time>2010-12-04T15:27:33Z</time>
      </trkpt>
      <trkpt lat="45.96945" lon="6.24471">
        <ele>1497.871338</ele>
        <time>2010-12-04T15:27:46Z</time>
      </trkpt>
      <trkpt lat="45.9695" lon="6.24477">
        <ele>1498.83252</ele>
        <time>2010-12-04T15:27:57Z</time>
      </trkpt>
      <trkpt lat="45.96955" lon="6.24481">
        <ele>1500.274902</ele>
        <time>2010-12-04T15:28:05Z</time>
      </trkpt>
      <trkpt lat="45.96958" lon="6.24486">
        <ele>1500.274902</ele>
        <time>2010-12-04T15:28:13Z</time>
      </trkpt>
      <trkpt lat="45.9696" lon="6.24492">
        <ele>1501.716797</ele>
        <time>2010-12-04T15:28:22Z</time>
      </trkpt>
      <trkpt lat="45.96963" lon="6.24496">
        <ele>1501.716797</ele>
        <time>2010-12-04T15:28:29Z</time>
      </trkpt>
      <trkpt lat="45.96967" lon="6.24502">
        <ele>1503.158691</ele>
        <time>2010-12-04T15:28:39Z</time>
      </trkpt>
      <trkpt lat="45.96962" lon="6.24502">
        <ele>1504.600586</ele>
        <time>2010-12-04T15:30:33Z</time>
      </trkpt>
      <trkpt lat="45.96959" lon="6.24503">
        <ele>1506.523193</ele>
        <time>2010-12-04T15:30:44Z</time>
      </trkpt>
      <trkpt lat="45.96954" lon="6.24508">
        <ele>1509.407227</ele>
        <time>2010-12-04T15:30:58Z</time>
      </trkpt>
      <trkpt lat="45.96955" lon="6.24512">
        <ele>1509.407227</ele>
        <time>2010-12-04T15:31:08Z</time>
      </trkpt>
      <trkpt lat="45.96952" lon="6.24516">
        <ele>1509.887695</ele>
        <time>2010-12-04T15:31:17Z</time>
      </trkpt>
      <trkpt lat="45.96947" lon="6.24517">
        <ele>1510.368408</ele>
        <time>2010-12-04T15:31:26Z</time>
      </trkpt>
      <trkpt lat="45.96942" lon="6.24519">
        <ele>1510.849121</ele>
        <time>2010-12-04T15:31:36Z</time>
      </trkpt>
      <trkpt lat="45.96938" lon="6.24518">
        <ele>1512.291016</ele>
        <time>2010-12-04T15:31:47Z</time>
      </trkpt>
      <trkpt lat="45.96934" lon="6.24521">
        <ele>1513.73291</ele>
        <time>2010-12-04T15:31:59Z</time>
      </trkpt>
      <trkpt lat="45.9693" lon="6.24522">
        <ele>1514.694336</ele>
        <time>2010-12-04T15:32:09Z</time>
      </trkpt>
      <trkpt lat="45.96927" lon="6.24524">
        <ele>1516.617188</ele>
        <time>2010-12-04T15:32:17Z</time>
      </trkpt>
      <trkpt lat="45.96924" lon="6.24526">
        <ele>1516.617188</ele>
        <time>2010-12-04T15:32:25Z</time>
      </trkpt>
      <trkpt lat="45.96921" lon="6.24527">
        <ele>1518.539795</ele>
        <time>2010-12-04T15:32:33Z</time>
      </trkpt>
      <trkpt lat="45.96917" lon="6.2453">
        <ele>1519.501221</ele>
        <time>2010-12-04T15:32:43Z</time>
      </trkpt>
      <trkpt lat="45.96915" lon="6.24533">
        <ele>1520.943115</ele>
        <time>2010-12-04T15:32:55Z</time>
      </trkpt>
      <trkpt lat="45.96912" lon="6.24539">
        <ele>1521.904297</ele>
        <time>2010-12-04T15:33:04Z</time>
      </trkpt>
      <trkpt lat="45.96909" lon="6.24541">
        <ele>1522.38501</ele>
        <time>2010-12-04T15:33:14Z</time>
      </trkpt>
      <trkpt lat="45.96906" lon="6.24542">
        <ele>1523.346436</ele>
        <time>2010-12-04T15:33:22Z</time>
      </trkpt>
      <trkpt lat="45.96902" lon="6.24541">
        <ele>1523.826904</ele>
        <time>2010-12-04T15:33:30Z</time>
      </trkpt>
      <trkpt lat="45.96901" lon="6.24542">
        <ele>1524.78833</ele>
        <time>2010-12-04T15:33:38Z</time>
      </trkpt>
      <trkpt lat="45.969" lon="6.24547">
        <ele>1525.749512</ele>
        <time>2010-12-04T15:33:46Z</time>
      </trkpt>
      <trkpt lat="45.96898" lon="6.24552">
        <ele>1526.230225</ele>
        <time>2010-12-04T15:33:53Z</time>
      </trkpt>
      <trkpt lat="45.96898" lon="6.24556">
        <ele>1527.19165</ele>
        <time>2010-12-04T15:34:00Z</time>
      </trkpt>
      <trkpt lat="45.96898" lon="6.2456">
        <ele>1528.633545</ele>
        <time>2010-12-04T15:34:09Z</time>
      </trkpt>
      <trkpt lat="45.96898" lon="6.24564">
        <ele>1530.556152</ele>
        <time>2010-12-04T15:34:18Z</time>
      </trkpt>
      <trkpt lat="45.96897" lon="6.24568">
        <ele>1531.517334</ele>
        <time>2010-12-04T15:34:26Z</time>
      </trkpt>
      <trkpt lat="45.96893" lon="6.24571">
        <ele>1531.998047</ele>
        <time>2010-12-04T15:34:36Z</time>
      </trkpt>
      <trkpt lat="45.96889" lon="6.24573">
        <ele>1533.920898</ele>
        <time>2010-12-04T15:34:49Z</time>
      </trkpt>
      <trkpt lat="45.96886" lon="6.24574">
        <ele>1533.920898</ele>
        <time>2010-12-04T15:34:58Z</time>
      </trkpt>
      <trkpt lat="45.96883" lon="6.24575">
        <ele>1535.362793</ele>
        <time>2010-12-04T15:35:05Z</time>
      </trkpt>
      <trkpt lat="45.96881" lon="6.24577">
        <ele>1536.324219</ele>
        <time>2010-12-04T15:35:14Z</time>
      </trkpt>
      <trkpt lat="45.96881" lon="6.24581">
        <ele>1537.2854</ele>
        <time>2010-12-04T15:35:22Z</time>
      </trkpt>
      <trkpt lat="45.96881" lon="6.24586">
        <ele>1538.246826</ele>
        <time>2010-12-04T15:35:32Z</time>
      </trkpt>
      <trkpt lat="45.96879" lon="6.24589">
        <ele>1539.688721</ele>
        <time>2010-12-04T15:35:40Z</time>
      </trkpt>
      <trkpt lat="45.96875" lon="6.2459">
        <ele>1541.130615</ele>
        <time>2010-12-04T15:35:51Z</time>
      </trkpt>
      <trkpt lat="45.96872" lon="6.24591">
        <ele>1542.572754</ele>
        <time>2010-12-04T15:36:00Z</time>
      </trkpt>
      <trkpt lat="45.96869" lon="6.24592">
        <ele>1543.533936</ele>
        <time>2010-12-04T15:36:08Z</time>
      </trkpt>
      <trkpt lat="45.96865" lon="6.24592">
        <ele>1544.97583</ele>
        <time>2010-12-04T15:36:18Z</time>
      </trkpt>
      <trkpt lat="45.96866" lon="6.24596">
        <ele>1545.937256</ele>
        <time>2010-12-04T15:36:27Z</time>
      </trkpt>
      <trkpt lat="45.96867" lon="6.24601">
        <ele>1546.898438</ele>
        <time>2010-12-04T15:36:37Z</time>
      </trkpt>
      <trkpt lat="45.96868" lon="6.24604">
        <ele>1549.302002</ele>
        <time>2010-12-04T15:36:44Z</time>
      </trkpt>
      <trkpt lat="45.96869" lon="6.24608">
        <ele>1549.782715</ele>
        <time>2010-12-04T15:36:52Z</time>
      </trkpt>
      <trkpt lat="45.96865" lon="6.24608">
        <ele>1550.743896</ele>
        <time>2010-12-04T15:37:00Z</time>
      </trkpt>
      <trkpt lat="45.96861" lon="6.24611">
        <ele>1551.705322</ele>
        <time>2010-12-04T15:37:08Z</time>
      </trkpt>
      <trkpt lat="45.96857" lon="6.24613">
        <ele>1553.147217</ele>
        <time>2010-12-04T15:37:17Z</time>
      </trkpt>
      <trkpt lat="45.96854" lon="6.24615">
        <ele>1554.108643</ele>
        <time>2010-12-04T15:37:27Z</time>
      </trkpt>
      <trkpt lat="45.96851" lon="6.24617">
        <ele>1555.550537</ele>
        <time>2010-12-04T15:37:36Z</time>
      </trkpt>
      <trkpt lat="45.96846" lon="6.24618">
        <ele>1557.953857</ele>
        <time>2010-12-04T15:37:49Z</time>
      </trkpt>
      <trkpt lat="45.96843" lon="6.24618">
        <ele>1558.434326</ele>
        <time>2010-12-04T15:37:59Z</time>
      </trkpt>
      <trkpt lat="45.9684" lon="6.2462">
        <ele>1560.837646</ele>
        <time>2010-12-04T15:38:07Z</time>
      </trkpt>
      <trkpt lat="45.96836" lon="6.24619">
        <ele>1562.279541</ele>
        <time>2010-12-04T15:38:16Z</time>
      </trkpt>
      <trkpt lat="45.96833" lon="6.24617">
        <ele>1562.279541</ele>
        <time>2010-12-04T15:38:26Z</time>
      </trkpt>
      <trkpt lat="45.9683" lon="6.24615">
        <ele>1563.721436</ele>
        <time>2010-12-04T15:38:36Z</time>
      </trkpt>
      <trkpt lat="45.96825" lon="6.24612">
        <ele>1563.721436</ele>
        <time>2010-12-04T15:38:46Z</time>
      </trkpt>
      <trkpt lat="45.96822" lon="6.2461">
        <ele>1564.683105</ele>
        <time>2010-12-04T15:38:54Z</time>
      </trkpt>
      <trkpt lat="45.96817" lon="6.24605">
        <ele>1566.125</ele>
        <time>2010-12-04T15:39:07Z</time>
      </trkpt>
      <trkpt lat="45.96813" lon="6.24603">
        <ele>1568.52832</ele>
        <time>2010-12-04T15:39:19Z</time>
      </trkpt>
      <trkpt lat="45.96811" lon="6.24607">
        <ele>1569.489746</ele>
        <time>2010-12-04T15:39:28Z</time>
      </trkpt>
      <trkpt lat="45.96811" lon="6.24609">
        <ele>1569.489746</ele>
        <time>2010-12-04T15:39:36Z</time>
      </trkpt>
      <trkpt lat="45.9681" lon="6.24613">
        <ele>1570.931641</ele>
        <time>2010-12-04T15:39:45Z</time>
      </trkpt>
      <trkpt lat="45.96809" lon="6.24615">
        <ele>1571.892822</ele>
        <time>2010-12-04T15:39:54Z</time>
      </trkpt>
      <trkpt lat="45.96805" lon="6.24613">
        <ele>1572.373535</ele>
        <time>2010-12-04T15:40:03Z</time>
      </trkpt>
      <trkpt lat="45.96802" lon="6.24612">
        <ele>1574.296143</ele>
        <time>2010-12-04T15:40:13Z</time>
      </trkpt>
      <trkpt lat="45.96797" lon="6.2461">
        <ele>1575.257324</ele>
        <time>2010-12-04T15:40:25Z</time>
      </trkpt>
      <trkpt lat="45.96793" lon="6.2461">
        <ele>1576.699463</ele>
        <time>2010-12-04T15:40:36Z</time>
      </trkpt>
      <trkpt lat="45.96789" lon="6.2461">
        <ele>1578.141357</ele>
        <time>2010-12-04T15:40:47Z</time>
      </trkpt>
      <trkpt lat="45.96783" lon="6.24609">
        <ele>1579.102539</ele>
        <time>2010-12-04T15:40:59Z</time>
      </trkpt>
      <trkpt lat="45.96777" lon="6.2461">
        <ele>1579.102539</ele>
        <time>2010-12-04T15:41:11Z</time>
      </trkpt>
      <trkpt lat="45.9677" lon="6.24618">
        <ele>1580.544922</ele>
        <time>2010-12-04T15:41:26Z</time>
      </trkpt>
      <trkpt lat="45.96769" lon="6.24622">
        <ele>1580.544922</ele>
        <time>2010-12-04T15:41:36Z</time>
      </trkpt>
      <trkpt lat="45.9677" lon="6.2463">
        <ele>1581.025635</ele>
        <time>2010-12-04T15:41:47Z</time>
      </trkpt>
      <trkpt lat="45.9677" lon="6.24638">
        <ele>1581.506104</ele>
        <time>2010-12-04T15:41:56Z</time>
      </trkpt>
      <trkpt lat="45.96771" lon="6.24644">
        <ele>1581.506104</ele>
        <time>2010-12-04T15:42:07Z</time>
      </trkpt>
      <trkpt lat="45.96775" lon="6.24652">
        <ele>1579.102539</ele>
        <time>2010-12-04T15:48:07Z</time>
      </trkpt>
      <trkpt lat="45.96778" lon="6.2466">
        <ele>1580.064209</ele>
        <time>2010-12-04T15:48:17Z</time>
      </trkpt>
      <trkpt lat="45.96781" lon="6.24668">
        <ele>1581.025635</ele>
        <time>2010-12-04T15:48:27Z</time>
      </trkpt>
      <trkpt lat="45.96784" lon="6.24678">
        <ele>1582.947998</ele>
        <time>2010-12-04T15:48:41Z</time>
      </trkpt>
      <trkpt lat="45.96784" lon="6.24687">
        <ele>1583.909424</ele>
        <time>2010-12-04T15:48:52Z</time>
      </trkpt>
      <trkpt lat="45.96787" lon="6.24696">
        <ele>1584.87085</ele>
        <time>2010-12-04T15:49:04Z</time>
      </trkpt>
      <trkpt lat="45.96789" lon="6.24703">
        <ele>1585.351318</ele>
        <time>2010-12-04T15:49:15Z</time>
      </trkpt>
      <trkpt lat="45.96791" lon="6.24712">
        <ele>1587.273926</ele>
        <time>2010-12-04T15:49:29Z</time>
      </trkpt>
      <trkpt lat="45.96792" lon="6.24721">
        <ele>1588.235352</ele>
        <time>2010-12-04T15:49:42Z</time>
      </trkpt>
      <trkpt lat="45.96793" lon="6.24723">
        <ele>1589.196533</ele>
        <time>2010-12-04T15:49:46Z</time>
      </trkpt>
      <trkpt lat="45.96796" lon="6.2473">
        <ele>1591.599854</ele>
        <time>2010-12-04T15:49:59Z</time>
      </trkpt>
      <trkpt lat="45.96797" lon="6.24737">
        <ele>1592.561279</ele>
        <time>2010-12-04T15:50:10Z</time>
      </trkpt>
      <trkpt lat="45.96798" lon="6.24739">
        <ele>1594.003174</ele>
        <time>2010-12-04T15:50:14Z</time>
      </trkpt>
      <trkpt lat="45.96801" lon="6.24747">
        <ele>1594.483643</ele>
        <time>2010-12-04T15:50:25Z</time>
      </trkpt>
      <trkpt lat="45.96807" lon="6.24755">
        <ele>1594.964355</ele>
        <time>2010-12-04T15:50:38Z</time>
      </trkpt>
      <trkpt lat="45.9681" lon="6.24763">
        <ele>1595.445068</ele>
        <time>2010-12-04T15:50:52Z</time>
      </trkpt>
      <trkpt lat="45.96814" lon="6.24768">
        <ele>1596.406738</ele>
        <time>2010-12-04T15:51:00Z</time>
      </trkpt>
      <trkpt lat="45.96813" lon="6.24773">
        <ele>1597.36792</ele>
        <time>2010-12-04T15:51:11Z</time>
      </trkpt>
      <trkpt lat="45.96811" lon="6.24778">
        <ele>1598.809814</ele>
        <time>2010-12-04T15:51:21Z</time>
      </trkpt>
      <trkpt lat="45.96809" lon="6.24789">
        <ele>1597.36792</ele>
        <time>2010-12-04T15:51:32Z</time>
      </trkpt>
      <trkpt lat="45.9681" lon="6.24799">
        <ele>1597.848633</ele>
        <time>2010-12-04T15:51:43Z</time>
      </trkpt>
      <trkpt lat="45.96816" lon="6.24808">
        <ele>1598.329102</ele>
        <time>2010-12-04T15:51:55Z</time>
      </trkpt>
      <trkpt lat="45.96822" lon="6.24818">
        <ele>1599.77124</ele>
        <time>2010-12-04T15:52:08Z</time>
      </trkpt>
      <trkpt lat="45.96827" lon="6.24829">
        <ele>1600.251953</ele>
        <time>2010-12-04T15:52:20Z</time>
      </trkpt>
      <trkpt lat="45.96833" lon="6.24838">
        <ele>1600.732422</ele>
        <time>2010-12-04T15:52:31Z</time>
      </trkpt>
      <trkpt lat="45.96838" lon="6.24846">
        <ele>1601.213135</ele>
        <time>2010-12-04T15:52:42Z</time>
      </trkpt>
      <trkpt lat="45.96842" lon="6.24849">
        <ele>1601.693848</ele>
        <time>2010-12-04T15:52:50Z</time>
      </trkpt>
      <trkpt lat="45.96847" lon="6.24851">
        <ele>1602.655029</ele>
        <time>2010-12-04T15:52:58Z</time>
      </trkpt>
      <trkpt lat="45.96851" lon="6.24852">
        <ele>1605.05835</ele>
        <time>2010-12-04T15:53:06Z</time>
      </trkpt>
      <trkpt lat="45.96858" lon="6.24856">
        <ele>1604.097168</ele>
        <time>2010-12-04T15:53:16Z</time>
      </trkpt>
      <trkpt lat="45.96863" lon="6.24859">
        <ele>1605.05835</ele>
        <time>2010-12-04T15:53:26Z</time>
      </trkpt>
      <trkpt lat="45.96868" lon="6.24866">
        <ele>1606.980957</ele>
        <time>2010-12-04T15:53:38Z</time>
      </trkpt>
      <trkpt lat="45.96869" lon="6.24875">
        <ele>1608.422852</ele>
        <time>2010-12-04T15:53:50Z</time>
      </trkpt>
      <trkpt lat="45.96872" lon="6.24882">
        <ele>1608.903564</ele>
        <time>2010-12-04T15:54:00Z</time>
      </trkpt>
      <trkpt lat="45.96874" lon="6.24882">
        <ele>1609.384277</ele>
        <time>2010-12-04T15:54:10Z</time>
      </trkpt>
      <trkpt lat="45.96872" lon="6.24884">
        <ele>1607.942383</ele>
        <time>2010-12-04T16:08:52Z</time>
      </trkpt>
      <trkpt lat="45.96866" lon="6.24887">
        <ele>1606.980957</ele>
        <time>2010-12-04T16:09:02Z</time>
      </trkpt>
      <trkpt lat="45.96858" lon="6.24887">
        <ele>1604.577637</ele>
        <time>2010-12-04T16:09:14Z</time>
      </trkpt>
      <trkpt lat="45.96857" lon="6.24887">
        <ele>1604.097168</ele>
        <time>2010-12-04T16:09:29Z</time>
      </trkpt>
      <trkpt lat="45.96851" lon="6.24886">
        <ele>1603.616455</ele>
        <time>2010-12-04T16:09:42Z</time>
      </trkpt>
      <trkpt lat="45.96845" lon="6.24879">
        <ele>1602.655029</ele>
        <time>2010-12-04T16:09:52Z</time>
      </trkpt>
      <trkpt lat="45.9684" lon="6.24872">
        <ele>1601.693848</ele>
        <time>2010-12-04T16:10:01Z</time>
      </trkpt>
      <trkpt lat="45.96834" lon="6.24865">
        <ele>1600.732422</ele>
        <time>2010-12-04T16:10:11Z</time>
      </trkpt>
      <trkpt lat="45.96823" lon="6.24857">
        <ele>1597.848633</ele>
        <time>2010-12-04T16:10:23Z</time>
      </trkpt>
      <trkpt lat="45.96819" lon="6.24855">
        <ele>1597.36792</ele>
        <time>2010-12-04T16:10:28Z</time>
      </trkpt>
      <trkpt lat="45.96805" lon="6.24849">
        <ele>1594.483643</ele>
        <time>2010-12-04T16:10:42Z</time>
      </trkpt>
      <trkpt lat="45.96797" lon="6.24847">
        <ele>1594.003174</ele>
        <time>2010-12-04T16:10:50Z</time>
      </trkpt>
      <trkpt lat="45.96783" lon="6.2485">
        <ele>1589.196533</ele>
        <time>2010-12-04T16:11:04Z</time>
      </trkpt>
      <trkpt lat="45.9677" lon="6.24852">
        <ele>1587.754639</ele>
        <time>2010-12-04T16:11:18Z</time>
      </trkpt>
      <trkpt lat="45.96758" lon="6.24852">
        <ele>1585.351318</ele>
        <time>2010-12-04T16:11:30Z</time>
      </trkpt>
      <trkpt lat="45.96748" lon="6.24848">
        <ele>1584.390137</ele>
        <time>2010-12-04T16:11:40Z</time>
      </trkpt>
      <trkpt lat="45.96742" lon="6.24837">
        <ele>1583.909424</ele>
        <time>2010-12-04T16:11:52Z</time>
      </trkpt>
      <trkpt lat="45.9674" lon="6.24826">
        <ele>1583.909424</ele>
        <time>2010-12-04T16:12:02Z</time>
      </trkpt>
      <trkpt lat="45.96738" lon="6.24815">
        <ele>1582.467529</ele>
        <time>2010-12-04T16:12:10Z</time>
      </trkpt>
      <trkpt lat="45.96733" lon="6.24805">
        <ele>1580.064209</ele>
        <time>2010-12-04T16:12:19Z</time>
      </trkpt>
      <trkpt lat="45.96729" lon="6.24792">
        <ele>1580.544922</ele>
        <time>2010-12-04T16:12:30Z</time>
      </trkpt>
      <trkpt lat="45.96725" lon="6.24782">
        <ele>1577.660645</ele>
        <time>2010-12-04T16:12:38Z</time>
      </trkpt>
      <trkpt lat="45.96721" lon="6.2477">
        <ele>1575.257324</ele>
        <time>2010-12-04T16:12:48Z</time>
      </trkpt>
      <trkpt lat="45.96716" lon="6.24757">
        <ele>1570.931641</ele>
        <time>2010-12-04T16:12:59Z</time>
      </trkpt>
      <trkpt lat="45.96715" lon="6.24755">
        <ele>1570.450928</ele>
        <time>2010-12-04T16:13:00Z</time>
      </trkpt>
      <trkpt lat="45.96709" lon="6.2474">
        <ele>1568.52832</ele>
        <time>2010-12-04T16:13:12Z</time>
      </trkpt>
      <trkpt lat="45.96704" lon="6.24727">
        <ele>1567.086426</ele>
        <time>2010-12-04T16:13:23Z</time>
      </trkpt>
      <trkpt lat="45.96699" lon="6.24715">
        <ele>1565.163818</ele>
        <time>2010-12-04T16:13:33Z</time>
      </trkpt>
      <trkpt lat="45.96696" lon="6.24704">
        <ele>1564.683105</ele>
        <time>2010-12-04T16:13:44Z</time>
      </trkpt>
      <trkpt lat="45.96697" lon="6.24696">
        <ele>1566.125</ele>
        <time>2010-12-04T16:13:54Z</time>
      </trkpt>
      <trkpt lat="45.96695" lon="6.24687">
        <ele>1567.086426</ele>
        <time>2010-12-04T16:14:05Z</time>
      </trkpt>
      <trkpt lat="45.96691" lon="6.24677">
        <ele>1568.52832</ele>
        <time>2010-12-04T16:14:17Z</time>
      </trkpt>
      <trkpt lat="45.96689" lon="6.24665">
        <ele>1566.605713</ele>
        <time>2010-12-04T16:14:27Z</time>
      </trkpt>
      <trkpt lat="45.96685" lon="6.24651">
        <ele>1565.163818</ele>
        <time>2010-12-04T16:14:39Z</time>
      </trkpt>
      <trkpt lat="45.96681" lon="6.24636">
        <ele>1563.240967</ele>
        <time>2010-12-04T16:14:51Z</time>
      </trkpt>
      <trkpt lat="45.96677" lon="6.24624">
        <ele>1562.279541</ele>
        <time>2010-12-04T16:15:01Z</time>
      </trkpt>
      <trkpt lat="45.96674" lon="6.24617">
        <ele>1559.395752</ele>
        <time>2010-12-04T16:15:07Z</time>
      </trkpt>
      <trkpt lat="45.96669" lon="6.24603">
        <ele>1556.992432</ele>
        <time>2010-12-04T16:15:19Z</time>
      </trkpt>
      <trkpt lat="45.96664" lon="6.2459">
        <ele>1554.108643</ele>
        <time>2010-12-04T16:15:31Z</time>
      </trkpt>
      <trkpt lat="45.96658" lon="6.24579">
        <ele>1553.147217</ele>
        <time>2010-12-04T16:15:42Z</time>
      </trkpt>
      <trkpt lat="45.96654" lon="6.24574">
        <ele>1552.185791</ele>
        <time>2010-12-04T16:15:48Z</time>
      </trkpt>
      <trkpt lat="45.96644" lon="6.24567">
        <ele>1549.302002</ele>
        <time>2010-12-04T16:16:00Z</time>
      </trkpt>
      <trkpt lat="45.96636" lon="6.24559">
        <ele>1547.859863</ele>
        <time>2010-12-04T16:16:11Z</time>
      </trkpt>
      <trkpt lat="45.9663" lon="6.24554">
        <ele>1548.821289</ele>
        <time>2010-12-04T16:16:21Z</time>
      </trkpt>
      <trkpt lat="45.96624" lon="6.24549">
        <ele>1550.743896</ele>
        <time>2010-12-04T16:16:31Z</time>
      </trkpt>
      <trkpt lat="45.96616" lon="6.24544">
        <ele>1550.743896</ele>
        <time>2010-12-04T16:16:41Z</time>
      </trkpt>
      <trkpt lat="45.96609" lon="6.24541">
        <ele>1552.185791</ele>
        <time>2010-12-04T16:16:52Z</time>
      </trkpt>
      <trkpt lat="45.96605" lon="6.24543">
        <ele>1552.666504</ele>
        <time>2010-12-04T16:17:00Z</time>
      </trkpt>
      <trkpt lat="45.966" lon="6.24542">
        <ele>1550.263428</ele>
        <time>2010-12-04T16:17:07Z</time>
      </trkpt>
      <trkpt lat="45.96592" lon="6.24537">
        <ele>1550.263428</ele>
        <time>2010-12-04T16:17:15Z</time>
      </trkpt>
      <trkpt lat="45.96586" lon="6.24536">
        <ele>1551.224609</ele>
        <time>2010-12-04T16:17:27Z</time>
      </trkpt>
      <trkpt lat="45.96581" lon="6.24536">
        <ele>1552.666504</ele>
        <time>2010-12-04T16:17:37Z</time>
      </trkpt>
      <trkpt lat="45.96579" lon="6.24538">
        <ele>1553.62793</ele>
        <time>2010-12-04T16:17:44Z</time>
      </trkpt>
      <trkpt lat="45.96578" lon="6.24541">
        <ele>1554.589111</ele>
        <time>2010-12-04T16:17:51Z</time>
      </trkpt>
      <trkpt lat="45.96574" lon="6.24543">
        <ele>1555.550537</ele>
        <time>2010-12-04T16:17:59Z</time>
      </trkpt>
      <trkpt lat="45.96572" lon="6.24545">
        <ele>1555.550537</ele>
        <time>2010-12-04T16:18:07Z</time>
      </trkpt>
      <trkpt lat="45.9657" lon="6.24548">
        <ele>1557.953857</ele>
        <time>2010-12-04T16:18:14Z</time>
      </trkpt>
      <trkpt lat="45.96567" lon="6.2455">
        <ele>1559.876221</ele>
        <time>2010-12-04T16:18:24Z</time>
      </trkpt>
      <trkpt lat="45.96565" lon="6.24549">
        <ele>1559.395752</ele>
        <time>2010-12-04T16:18:32Z</time>
      </trkpt>
      <trkpt lat="45.96561" lon="6.24548">
        <ele>1560.356934</ele>
        <time>2010-12-04T16:18:40Z</time>
      </trkpt>
      <trkpt lat="45.96558" lon="6.2455">
        <ele>1561.318359</ele>
        <time>2010-12-04T16:18:47Z</time>
      </trkpt>
      <trkpt lat="45.96557" lon="6.24549">
        <ele>1561.318359</ele>
        <time>2010-12-04T16:18:57Z</time>
      </trkpt>
      <trkpt lat="45.96554" lon="6.24545">
        <ele>1562.279541</ele>
        <time>2010-12-04T16:19:59Z</time>
      </trkpt>
      <trkpt lat="45.96555" lon="6.24545">
        <ele>1561.318359</ele>
        <time>2010-12-04T16:20:18Z</time>
      </trkpt>
      <trkpt lat="45.96551" lon="6.24542">
        <ele>1560.356934</ele>
        <time>2010-12-04T16:20:30Z</time>
      </trkpt>
      <trkpt lat="45.96547" lon="6.24535">
        <ele>1559.395752</ele>
        <time>2010-12-04T16:20:40Z</time>
      </trkpt>
      <trkpt lat="45.96551" lon="6.24529">
        <ele>1558.434326</ele>
        <time>2010-12-04T16:20:50Z</time>
      </trkpt>
      <trkpt lat="45.96554" lon="6.24525">
        <ele>1555.069824</ele>
        <time>2010-12-04T16:20:57Z</time>
      </trkpt>
      <trkpt lat="45.96558" lon="6.24517">
        <ele>1552.185791</ele>
        <time>2010-12-04T16:21:06Z</time>
      </trkpt>
      <trkpt lat="45.96562" lon="6.24513">
        <ele>1550.743896</ele>
        <time>2010-12-04T16:21:17Z</time>
      </trkpt>
      <trkpt lat="45.96565" lon="6.24509">
        <ele>1548.821289</ele>
        <time>2010-12-04T16:21:26Z</time>
      </trkpt>
      <trkpt lat="45.96567" lon="6.24509">
        <ele>1548.340576</ele>
        <time>2010-12-04T16:21:36Z</time>
      </trkpt>
      <trkpt lat="45.96568" lon="6.24509">
        <ele>1547.859863</ele>
        <time>2010-12-04T16:21:44Z</time>
      </trkpt>
      <trkpt lat="45.96572" lon="6.24506">
        <ele>1544.97583</ele>
        <time>2010-12-04T16:21:53Z</time>
      </trkpt>
      <trkpt lat="45.96577" lon="6.245">
        <ele>1544.495117</ele>
        <time>2010-12-04T16:22:01Z</time>
      </trkpt>
      <trkpt lat="45.96581" lon="6.24494">
        <ele>1541.611328</ele>
        <time>2010-12-04T16:22:12Z</time>
      </trkpt>
      <trkpt lat="45.96586" lon="6.24495">
        <ele>1541.130615</ele>
        <time>2010-12-04T16:22:20Z</time>
      </trkpt>
      <trkpt lat="45.9659" lon="6.24495">
        <ele>1541.611328</ele>
        <time>2010-12-04T16:22:28Z</time>
      </trkpt>
      <trkpt lat="45.96596" lon="6.24495">
        <ele>1540.649902</ele>
        <time>2010-12-04T16:22:39Z</time>
      </trkpt>
      <trkpt lat="45.96601" lon="6.24485">
        <ele>1539.688721</ele>
        <time>2010-12-04T16:22:49Z</time>
      </trkpt>
      <trkpt lat="45.96601" lon="6.24478">
        <ele>1537.766113</ele>
        <time>2010-12-04T16:22:56Z</time>
      </trkpt>
      <trkpt lat="45.96603" lon="6.24469">
        <ele>1534.401611</ele>
        <time>2010-12-04T16:23:04Z</time>
      </trkpt>
      <trkpt lat="45.96606" lon="6.24458">
        <ele>1531.517334</ele>
        <time>2010-12-04T16:23:12Z</time>
      </trkpt>
      <trkpt lat="45.96605" lon="6.2445">
        <ele>1529.594727</ele>
        <time>2010-12-04T16:23:23Z</time>
      </trkpt>
      <trkpt lat="45.96605" lon="6.2445">
        <ele>1529.594727</ele>
        <time>2010-12-04T16:23:36Z</time>
      </trkpt>
      <trkpt lat="45.96604" lon="6.24447">
        <ele>1529.114014</ele>
        <time>2010-12-04T16:23:48Z</time>
      </trkpt>
      <trkpt lat="45.96602" lon="6.24439">
        <ele>1526.230225</ele>
        <time>2010-12-04T16:23:56Z</time>
      </trkpt>
      <trkpt lat="45.966" lon="6.24429">
        <ele>1523.346436</ele>
        <time>2010-12-04T16:24:06Z</time>
      </trkpt>
      <trkpt lat="45.96598" lon="6.24422">
        <ele>1519.981689</ele>
        <time>2010-12-04T16:24:14Z</time>
      </trkpt>
      <trkpt lat="45.96597" lon="6.24421">
        <ele>1520.462402</ele>
        <time>2010-12-04T16:24:15Z</time>
      </trkpt>
      <trkpt lat="45.96596" lon="6.24413">
        <ele>1517.0979</ele>
        <time>2010-12-04T16:24:24Z</time>
      </trkpt>
      <trkpt lat="45.96595" lon="6.24403">
        <ele>1515.655762</ele>
        <time>2010-12-04T16:24:34Z</time>
      </trkpt>
      <trkpt lat="45.96593" lon="6.24401">
        <ele>1515.175049</ele>
        <time>2010-12-04T16:24:42Z</time>
      </trkpt>
      <trkpt lat="45.96584" lon="6.24398">
        <ele>1512.291016</ele>
        <time>2010-12-04T16:26:21Z</time>
      </trkpt>
      <trkpt lat="45.96577" lon="6.24398">
        <ele>1509.887695</ele>
        <time>2010-12-04T16:26:30Z</time>
      </trkpt>
      <trkpt lat="45.96568" lon="6.24392">
        <ele>1508.445801</ele>
        <time>2010-12-04T16:26:41Z</time>
      </trkpt>
      <trkpt lat="45.96561" lon="6.24388">
        <ele>1508.445801</ele>
        <time>2010-12-04T16:26:51Z</time>
      </trkpt>
      <trkpt lat="45.96552" lon="6.24387">
        <ele>1507.003906</ele>
        <time>2010-12-04T16:27:01Z</time>
      </trkpt>
      <trkpt lat="45.96542" lon="6.24395">
        <ele>1504.120117</ele>
        <time>2010-12-04T16:27:14Z</time>
      </trkpt>
      <trkpt lat="45.96533" lon="6.24395">
        <ele>1502.197266</ele>
        <time>2010-12-04T16:27:24Z</time>
      </trkpt>
      <trkpt lat="45.96531" lon="6.24393">
        <ele>1500.755371</ele>
        <time>2010-12-04T16:27:32Z</time>
      </trkpt>
      <trkpt lat="45.96527" lon="6.24389">
        <ele>1498.83252</ele>
        <time>2010-12-04T16:27:42Z</time>
      </trkpt>
      <trkpt lat="45.96523" lon="6.24384">
        <ele>1494.987305</ele>
        <time>2010-12-04T16:27:49Z</time>
      </trkpt>
      <trkpt lat="45.9652" lon="6.24377">
        <ele>1491.14209</ele>
        <time>2010-12-04T16:27:57Z</time>
      </trkpt>
      <trkpt lat="45.96515" lon="6.24368">
        <ele>1487.777588</ele>
        <time>2010-12-04T16:28:07Z</time>
      </trkpt>
      <trkpt lat="45.96514" lon="6.24366">
        <ele>1486.816162</ele>
        <time>2010-12-04T16:28:09Z</time>
      </trkpt>
      <trkpt lat="45.96511" lon="6.2436">
        <ele>1484.413086</ele>
        <time>2010-12-04T16:28:14Z</time>
      </trkpt>
      <trkpt lat="45.96508" lon="6.24352">
        <ele>1481.528809</ele>
        <time>2010-12-04T16:28:21Z</time>
      </trkpt>
      <trkpt lat="45.96506" lon="6.24343">
        <ele>1479.125488</ele>
        <time>2010-12-04T16:28:28Z</time>
      </trkpt>
      <trkpt lat="45.96504" lon="6.2433">
        <ele>1475.760986</ele>
        <time>2010-12-04T16:28:37Z</time>
      </trkpt>
      <trkpt lat="45.96502" lon="6.2432">
        <ele>1474.319092</ele>
        <time>2010-12-04T16:28:46Z</time>
      </trkpt>
      <trkpt lat="45.96502" lon="6.24319">
        <ele>1474.319092</ele>
        <time>2010-12-04T16:29:01Z</time>
      </trkpt>
      <trkpt lat="45.96499" lon="6.24308">
        <ele>1472.877197</ele>
        <time>2010-12-04T16:29:10Z</time>
      </trkpt>
      <trkpt lat="45.96497" lon="6.24293">
        <ele>1470.473877</ele>
        <time>2010-12-04T16:29:20Z</time>
      </trkpt>
      <trkpt lat="45.96495" lon="6.2428">
        <ele>1468.55127</ele>
        <time>2010-12-04T16:29:30Z</time>
      </trkpt>
      <trkpt lat="45.96493" lon="6.24267">
        <ele>1466.628418</ele>
        <time>2010-12-04T16:29:42Z</time>
      </trkpt>
      <trkpt lat="45.96495" lon="6.24258">
        <ele>1467.5896</ele>
        <time>2010-12-04T16:29:52Z</time>
      </trkpt>
      <trkpt lat="45.96496" lon="6.24251">
        <ele>1469.031982</ele>
        <time>2010-12-04T16:30:01Z</time>
      </trkpt>
      <trkpt lat="45.96497" lon="6.24248">
        <ele>1468.55127</ele>
        <time>2010-12-04T16:30:10Z</time>
      </trkpt>
      <trkpt lat="45.96503" lon="6.24244">
        <ele>1468.070557</ele>
        <time>2010-12-04T16:31:19Z</time>
      </trkpt>
      <trkpt lat="45.96508" lon="6.24238">
        <ele>1465.667236</ele>
        <time>2010-12-04T16:31:26Z</time>
      </trkpt>
      <trkpt lat="45.96514" lon="6.2423">
        <ele>1462.30249</ele>
        <time>2010-12-04T16:31:36Z</time>
      </trkpt>
      <trkpt lat="45.96516" lon="6.24221">
        <ele>1460.379883</ele>
        <time>2010-12-04T16:31:45Z</time>
      </trkpt>
      <trkpt lat="45.96512" lon="6.24209">
        <ele>1458.457275</ele>
        <time>2010-12-04T16:31:56Z</time>
      </trkpt>
      <trkpt lat="45.96509" lon="6.24197">
        <ele>1455.573486</ele>
        <time>2010-12-04T16:32:06Z</time>
      </trkpt>
      <trkpt lat="45.96509" lon="6.24195">
        <ele>1454.612061</ele>
        <time>2010-12-04T16:32:08Z</time>
      </trkpt>
      <trkpt lat="45.96506" lon="6.24183">
        <ele>1453.170166</ele>
        <time>2010-12-04T16:32:17Z</time>
      </trkpt>
      <trkpt lat="45.9651" lon="6.24181">
        <ele>1450.766602</ele>
        <time>2010-12-04T16:32:24Z</time>
      </trkpt>
      <trkpt lat="45.96514" lon="6.24178">
        <ele>1446.921387</ele>
        <time>2010-12-04T16:32:31Z</time>
      </trkpt>
      <trkpt lat="45.96511" lon="6.24167">
        <ele>1445.960205</ele>
        <time>2010-12-04T16:32:40Z</time>
      </trkpt>
      <trkpt lat="45.96509" lon="6.24151">
        <ele>1444.998779</ele>
        <time>2010-12-04T16:32:50Z</time>
      </trkpt>
      <trkpt lat="45.96506" lon="6.24138">
        <ele>1444.037598</ele>
        <time>2010-12-04T16:32:58Z</time>
      </trkpt>
      <trkpt lat="45.96505" lon="6.2413">
        <ele>1443.556885</ele>
        <time>2010-12-04T16:33:06Z</time>
      </trkpt>
      <trkpt lat="45.96504" lon="6.2413">
        <ele>1443.556885</ele>
        <time>2010-12-04T16:33:49Z</time>
      </trkpt>
      <trkpt lat="45.96515" lon="6.2413">
        <ele>1443.556885</ele>
        <time>2010-12-04T16:34:03Z</time>
      </trkpt>
      <trkpt lat="45.96517" lon="6.24128">
        <ele>1441.634277</ele>
        <time>2010-12-04T16:34:08Z</time>
      </trkpt>
      <trkpt lat="45.96516" lon="6.24121">
        <ele>1440.192383</ele>
        <time>2010-12-04T16:34:16Z</time>
      </trkpt>
      <trkpt lat="45.96516" lon="6.24111">
        <ele>1439.230957</ele>
        <time>2010-12-04T16:34:24Z</time>
      </trkpt>
      <trkpt lat="45.96517" lon="6.24109">
        <ele>1438.269775</ele>
        <time>2010-12-04T16:34:26Z</time>
      </trkpt>
      <trkpt lat="45.96519" lon="6.24107">
        <ele>1436.827637</ele>
        <time>2010-12-04T16:34:28Z</time>
      </trkpt>
      <trkpt lat="45.96523" lon="6.24099">
        <ele>1435.385498</ele>
        <time>2010-12-04T16:34:35Z</time>
      </trkpt>
      <trkpt lat="45.96523" lon="6.24097">
        <ele>1435.385498</ele>
        <time>2010-12-04T16:34:36Z</time>
      </trkpt>
      <trkpt lat="45.96527" lon="6.24084">
        <ele>1432.020996</ele>
        <time>2010-12-04T16:34:45Z</time>
      </trkpt>
      <trkpt lat="45.96527" lon="6.24082">
        <ele>1431.540283</ele>
        <time>2010-12-04T16:34:46Z</time>
      </trkpt>
      <trkpt lat="45.96529" lon="6.24059">
        <ele>1429.136963</ele>
        <time>2010-12-04T16:34:57Z</time>
      </trkpt>
      <trkpt lat="45.96527" lon="6.24044">
        <ele>1427.2146</ele>
        <time>2010-12-04T16:35:06Z</time>
      </trkpt>
      <trkpt lat="45.96527" lon="6.24027">
        <ele>1426.253174</ele>
        <time>2010-12-04T16:35:15Z</time>
      </trkpt>
      <trkpt lat="45.96527" lon="6.24014">
        <ele>1424.811279</ele>
        <time>2010-12-04T16:35:25Z</time>
      </trkpt>
      <trkpt lat="45.96529" lon="6.24001">
        <ele>1423.849854</ele>
        <time>2010-12-04T16:35:32Z</time>
      </trkpt>
      <trkpt lat="45.96529" lon="6.23985">
        <ele>1423.849854</ele>
        <time>2010-12-04T16:35:41Z</time>
      </trkpt>
      <trkpt lat="45.9653" lon="6.23968">
        <ele>1422.888672</ele>
        <time>2010-12-04T16:35:50Z</time>
      </trkpt>
      <trkpt lat="45.9653" lon="6.2396">
        <ele>1421.446533</ele>
        <time>2010-12-04T16:35:55Z</time>
      </trkpt>
      <trkpt lat="45.96534" lon="6.23948">
        <ele>1421.446533</ele>
        <time>2010-12-04T16:36:03Z</time>
      </trkpt>
      <trkpt lat="45.96537" lon="6.23938">
        <ele>1420.485352</ele>
        <time>2010-12-04T16:36:11Z</time>
      </trkpt>
      <trkpt lat="45.96538" lon="6.2393">
        <ele>1419.043213</ele>
        <time>2010-12-04T16:36:17Z</time>
      </trkpt>
      <trkpt lat="45.9654" lon="6.23924">
        <ele>1419.043213</ele>
        <time>2010-12-04T16:36:21Z</time>
      </trkpt>
      <trkpt lat="45.96543" lon="6.23915">
        <ele>1417.601074</ele>
        <time>2010-12-04T16:36:28Z</time>
      </trkpt>
      <trkpt lat="45.96544" lon="6.23914">
        <ele>1418.081787</ele>
        <time>2010-12-04T16:36:29Z</time>
      </trkpt>
      <trkpt lat="45.96547" lon="6.23908">
        <ele>1418.081787</ele>
        <time>2010-12-04T16:36:35Z</time>
      </trkpt>
      <trkpt lat="45.96556" lon="6.23895">
        <ele>1416.15918</ele>
        <time>2010-12-04T16:36:47Z</time>
      </trkpt>
      <trkpt lat="45.9656" lon="6.2388">
        <ele>1415.678711</ele>
        <time>2010-12-04T16:36:58Z</time>
      </trkpt>
      <trkpt lat="45.96566" lon="6.23866">
        <ele>1414.717285</ele>
        <time>2010-12-04T16:37:08Z</time>
      </trkpt>
      <trkpt lat="45.96571" lon="6.23851">
        <ele>1413.275391</ele>
        <time>2010-12-04T16:37:19Z</time>
      </trkpt>
      <trkpt lat="45.96573" lon="6.23836">
        <ele>1411.352783</ele>
        <time>2010-12-04T16:37:29Z</time>
      </trkpt>
      <trkpt lat="45.96571" lon="6.23821">
        <ele>1409.430176</ele>
        <time>2010-12-04T16:37:40Z</time>
      </trkpt>
      <trkpt lat="45.96567" lon="6.23807">
        <ele>1407.507568</ele>
        <time>2010-12-04T16:37:51Z</time>
      </trkpt>
      <trkpt lat="45.96562" lon="6.23797">
        <ele>1406.546143</ele>
        <time>2010-12-04T16:38:00Z</time>
      </trkpt>
      <trkpt lat="45.96559" lon="6.23787">
        <ele>1405.104248</ele>
        <time>2010-12-04T16:38:06Z</time>
      </trkpt>
      <trkpt lat="45.96551" lon="6.2377">
        <ele>1403.662109</ele>
        <time>2010-12-04T16:38:18Z</time>
      </trkpt>
      <trkpt lat="45.96545" lon="6.23759">
        <ele>1402.700684</ele>
        <time>2010-12-04T16:38:27Z</time>
      </trkpt>
      <trkpt lat="45.96533" lon="6.23753">
        <ele>1401.739502</ele>
        <time>2010-12-04T16:38:37Z</time>
      </trkpt>
      <trkpt lat="45.96523" lon="6.23744">
        <ele>1399.816895</ele>
        <time>2010-12-04T16:38:47Z</time>
      </trkpt>
      <trkpt lat="45.96513" lon="6.23735">
        <ele>1397.413574</ele>
        <time>2010-12-04T16:38:58Z</time>
      </trkpt>
      <trkpt lat="45.96504" lon="6.23729">
        <ele>1396.452393</ele>
        <time>2010-12-04T16:39:07Z</time>
      </trkpt>
      <trkpt lat="45.96501" lon="6.23727">
        <ele>1395.490967</ele>
        <time>2010-12-04T16:39:15Z</time>
      </trkpt>
      <trkpt lat="45.96486" lon="6.23725">
        <ele>1394.049072</ele>
        <time>2010-12-04T16:43:02Z</time>
      </trkpt>
      <trkpt lat="45.96472" lon="6.2372">
        <ele>1393.087646</ele>
        <time>2010-12-04T16:43:14Z</time>
      </trkpt>
      <trkpt lat="45.96461" lon="6.23713">
        <ele>1392.126465</ele>
        <time>2010-12-04T16:43:24Z</time>
      </trkpt>
      <trkpt lat="45.96454" lon="6.23707">
        <ele>1391.645752</ele>
        <time>2010-12-04T16:43:31Z</time>
      </trkpt>
      <trkpt lat="45.96447" lon="6.23697">
        <ele>1389.723145</ele>
        <time>2010-12-04T16:43:40Z</time>
      </trkpt>
      <trkpt lat="45.96439" lon="6.23688">
        <ele>1388.28125</ele>
        <time>2010-12-04T16:43:50Z</time>
      </trkpt>
      <trkpt lat="45.96432" lon="6.23677">
        <ele>1387.31958</ele>
        <time>2010-12-04T16:43:58Z</time>
      </trkpt>
      <trkpt lat="45.96427" lon="6.23665">
        <ele>1384.916504</ele>
        <time>2010-12-04T16:44:06Z</time>
      </trkpt>
      <trkpt lat="45.9642" lon="6.23646">
        <ele>1382.993652</ele>
        <time>2010-12-04T16:44:18Z</time>
      </trkpt>
      <trkpt lat="45.96418" lon="6.23634">
        <ele>1382.993652</ele>
        <time>2010-12-04T16:44:25Z</time>
      </trkpt>
      <trkpt lat="45.96415" lon="6.23617">
        <ele>1381.551758</ele>
        <time>2010-12-04T16:44:35Z</time>
      </trkpt>
      <trkpt lat="45.96416" lon="6.23598">
        <ele>1380.590576</ele>
        <time>2010-12-04T16:44:47Z</time>
      </trkpt>
      <trkpt lat="45.96417" lon="6.23591">
        <ele>1380.109863</ele>
        <time>2010-12-04T16:44:52Z</time>
      </trkpt>
      <trkpt lat="45.96418" lon="6.23587">
        <ele>1380.109863</ele>
        <time>2010-12-04T16:44:55Z</time>
      </trkpt>
      <trkpt lat="45.96419" lon="6.23577">
        <ele>1379.62915</ele>
        <time>2010-12-04T16:45:02Z</time>
      </trkpt>
      <trkpt lat="45.96411" lon="6.23557">
        <ele>1376.745361</ele>
        <time>2010-12-04T16:45:16Z</time>
      </trkpt>
      <trkpt lat="45.96404" lon="6.23548">
        <ele>1373.861328</ele>
        <time>2010-12-04T16:45:24Z</time>
      </trkpt>
      <trkpt lat="45.96398" lon="6.23538">
        <ele>1372.900146</ele>
        <time>2010-12-04T16:45:32Z</time>
      </trkpt>
      <trkpt lat="45.96392" lon="6.23531">
        <ele>1372.900146</ele>
        <time>2010-12-04T16:45:40Z</time>
      </trkpt>
      <trkpt lat="45.96383" lon="6.23521">
        <ele>1370.977295</ele>
        <time>2010-12-04T16:45:50Z</time>
      </trkpt>
      <trkpt lat="45.96376" lon="6.23513">
        <ele>1370.015869</ele>
        <time>2010-12-04T16:45:58Z</time>
      </trkpt>
      <trkpt lat="45.96372" lon="6.2351">
        <ele>1370.496582</ele>
        <time>2010-12-04T16:46:01Z</time>
      </trkpt>
      <trkpt lat="45.96367" lon="6.23498">
        <ele>1369.054688</ele>
        <time>2010-12-04T16:46:10Z</time>
      </trkpt>
      <trkpt lat="45.96358" lon="6.2349">
        <ele>1368.093262</ele>
        <time>2010-12-04T16:46:19Z</time>
      </trkpt>
      <trkpt lat="45.96352" lon="6.23482">
        <ele>1368.093262</ele>
        <time>2010-12-04T16:46:27Z</time>
      </trkpt>
      <trkpt lat="45.96345" lon="6.23472">
        <ele>1366.651367</ele>
        <time>2010-12-04T16:46:36Z</time>
      </trkpt>
      <trkpt lat="45.96338" lon="6.23464">
        <ele>1366.170654</ele>
        <time>2010-12-04T16:46:44Z</time>
      </trkpt>
      <trkpt lat="45.96329" lon="6.23455">
        <ele>1364.72876</ele>
        <time>2010-12-04T16:46:54Z</time>
      </trkpt>
      <trkpt lat="45.96321" lon="6.23444">
        <ele>1361.844971</ele>
        <time>2010-12-04T16:47:04Z</time>
      </trkpt>
      <trkpt lat="45.9632" lon="6.23441">
        <ele>1362.325439</ele>
        <time>2010-12-04T16:47:05Z</time>
      </trkpt>
      <trkpt lat="45.96313" lon="6.23433">
        <ele>1360.883545</ele>
        <time>2010-12-04T16:47:12Z</time>
      </trkpt>
      <trkpt lat="45.96304" lon="6.2343">
        <ele>1359.922119</ele>
        <time>2010-12-04T16:47:19Z</time>
      </trkpt>
      <trkpt lat="45.96297" lon="6.23425">
        <ele>1358.960938</ele>
        <time>2010-12-04T16:47:26Z</time>
      </trkpt>
      <trkpt lat="45.9629" lon="6.23411">
        <ele>1357.999756</ele>
        <time>2010-12-04T16:47:34Z</time>
      </trkpt>
      <trkpt lat="45.96282" lon="6.23402">
        <ele>1357.03833</ele>
        <time>2010-12-04T16:47:43Z</time>
      </trkpt>
      <trkpt lat="45.96275" lon="6.23391">
        <ele>1356.076904</ele>
        <time>2010-12-04T16:47:53Z</time>
      </trkpt>
      <trkpt lat="45.96271" lon="6.23387">
        <ele>1355.596191</ele>
        <time>2010-12-04T16:48:02Z</time>
      </trkpt>
      <trkpt lat="45.96267" lon="6.2338">
        <ele>1356.076904</ele>
        <time>2010-12-04T16:48:18Z</time>
      </trkpt>
      <trkpt lat="45.96258" lon="6.23376">
        <ele>1355.115479</ele>
        <time>2010-12-04T16:48:28Z</time>
      </trkpt>
      <trkpt lat="45.96246" lon="6.23369">
        <ele>1354.154297</ele>
        <time>2010-12-04T16:48:38Z</time>
      </trkpt>
      <trkpt lat="45.96235" lon="6.23365">
        <ele>1354.154297</ele>
        <time>2010-12-04T16:48:47Z</time>
      </trkpt>
      <trkpt lat="45.96224" lon="6.2336">
        <ele>1353.192871</ele>
        <time>2010-12-04T16:48:56Z</time>
      </trkpt>
      <trkpt lat="45.96215" lon="6.2335">
        <ele>1351.750977</ele>
        <time>2010-12-04T16:49:05Z</time>
      </trkpt>
      <trkpt lat="45.96208" lon="6.23339">
        <ele>1350.789551</ele>
        <time>2010-12-04T16:49:14Z</time>
      </trkpt>
      <trkpt lat="45.96203" lon="6.23326">
        <ele>1348.866943</ele>
        <time>2010-12-04T16:49:23Z</time>
      </trkpt>
      <trkpt lat="45.96197" lon="6.23313">
        <ele>1347.425049</ele>
        <time>2010-12-04T16:49:32Z</time>
      </trkpt>
      <trkpt lat="45.9619" lon="6.23302">
        <ele>1345.983154</ele>
        <time>2010-12-04T16:49:43Z</time>
      </trkpt>
      <trkpt lat="45.9618" lon="6.23288">
        <ele>1343.579834</ele>
        <time>2010-12-04T16:49:56Z</time>
      </trkpt>
      <trkpt lat="45.96174" lon="6.23279">
        <ele>1342.618652</ele>
        <time>2010-12-04T16:50:06Z</time>
      </trkpt>
      <trkpt lat="45.96166" lon="6.23267">
        <ele>1340.695801</ele>
        <time>2010-12-04T16:50:17Z</time>
      </trkpt>
      <trkpt lat="45.96166" lon="6.23266">
        <ele>1340.695801</ele>
        <time>2010-12-04T16:50:18Z</time>
      </trkpt>
      <trkpt lat="45.96158" lon="6.23256">
        <ele>1340.215332</ele>
        <time>2010-12-04T16:50:27Z</time>
      </trkpt>
      <trkpt lat="45.96153" lon="6.23252">
        <ele>1340.215332</ele>
        <time>2010-12-04T16:50:31Z</time>
      </trkpt>
      <trkpt lat="45.96143" lon="6.23242">
        <ele>1340.215332</ele>
        <time>2010-12-04T16:50:42Z</time>
      </trkpt>
      <trkpt lat="45.9614" lon="6.23236">
        <ele>1340.215332</ele>
        <time>2010-12-04T16:50:50Z</time>
      </trkpt>
      <trkpt lat="45.9613" lon="6.23227">
        <ele>1338.773193</ele>
        <time>2010-12-04T16:52:59Z</time>
      </trkpt>
      <trkpt lat="45.96124" lon="6.23211">
        <ele>1336.850342</ele>
        <time>2010-12-04T16:53:11Z</time>
      </trkpt>
      <trkpt lat="45.96118" lon="6.23193">
        <ele>1334.447266</ele>
        <time>2010-12-04T16:53:23Z</time>
      </trkpt>
      <trkpt lat="45.96114" lon="6.23179">
        <ele>1333.48584</ele>
        <time>2010-12-04T16:53:33Z</time>
      </trkpt>
      <trkpt lat="45.96109" lon="6.23167">
        <ele>1331.563232</ele>
        <time>2010-12-04T16:53:42Z</time>
      </trkpt>
      <trkpt lat="45.96102" lon="6.23149">
        <ele>1329.640625</ele>
        <time>2010-12-04T16:53:54Z</time>
      </trkpt>
      <trkpt lat="45.96097" lon="6.23133">
        <ele>1326.276123</ele>
        <time>2010-12-04T16:54:04Z</time>
      </trkpt>
      <trkpt lat="45.96091" lon="6.23115">
        <ele>1325.79541</ele>
        <time>2010-12-04T16:54:16Z</time>
      </trkpt>
      <trkpt lat="45.96088" lon="6.23108">
        <ele>1325.79541</ele>
        <time>2010-12-04T16:54:23Z</time>
      </trkpt>
      <trkpt lat="45.96082" lon="6.23102">
        <ele>1324.834229</ele>
        <time>2010-12-04T16:54:31Z</time>
      </trkpt>
      <trkpt lat="45.96073" lon="6.23094">
        <ele>1323.872559</ele>
        <time>2010-12-04T16:54:41Z</time>
      </trkpt>
      <trkpt lat="45.9607" lon="6.23091">
        <ele>1322.911377</ele>
        <time>2010-12-04T16:54:44Z</time>
      </trkpt>
      <trkpt lat="45.96067" lon="6.23083">
        <ele>1320.98877</ele>
        <time>2010-12-04T16:54:55Z</time>
      </trkpt>
      <trkpt lat="45.96065" lon="6.23076">
        <ele>1320.98877</ele>
        <time>2010-12-04T16:55:03Z</time>
      </trkpt>
      <trkpt lat="45.96061" lon="6.23061">
        <ele>1319.066162</ele>
        <time>2010-12-04T16:55:14Z</time>
      </trkpt>
      <trkpt lat="45.96058" lon="6.23047">
        <ele>1317.143555</ele>
        <time>2010-12-04T16:55:23Z</time>
      </trkpt>
      <trkpt lat="45.96052" lon="6.23034">
        <ele>1314.259521</ele>
        <time>2010-12-04T16:55:32Z</time>
      </trkpt>
      <trkpt lat="45.96051" lon="6.23033">
        <ele>1313.778809</ele>
        <time>2010-12-04T16:55:33Z</time>
      </trkpt>
      <trkpt lat="45.96047" lon="6.23026">
        <ele>1313.29834</ele>
        <time>2010-12-04T16:55:38Z</time>
      </trkpt>
      <trkpt lat="45.9605" lon="6.23012">
        <ele>1310.414307</ele>
        <time>2010-12-04T16:55:48Z</time>
      </trkpt>
      <trkpt lat="45.96053" lon="6.23009">
        <ele>1309.933594</ele>
        <time>2010-12-04T16:57:11Z</time>
      </trkpt>
      <trkpt lat="45.96058" lon="6.23013">
        <ele>1309.933594</ele>
        <time>2010-12-04T16:57:18Z</time>
      </trkpt>
      <trkpt lat="45.96063" lon="6.23015">
        <ele>1308.491699</ele>
        <time>2010-12-04T16:57:27Z</time>
      </trkpt>
      <trkpt lat="45.9607" lon="6.23019">
        <ele>1308.01123</ele>
        <time>2010-12-04T16:57:36Z</time>
      </trkpt>
      <trkpt lat="45.96078" lon="6.23023">
        <ele>1306.568848</ele>
        <time>2010-12-04T16:57:44Z</time>
      </trkpt>
      <trkpt lat="45.96083" lon="6.23031">
        <ele>1304.64624</ele>
        <time>2010-12-04T16:57:54Z</time>
      </trkpt>
      <trkpt lat="45.96087" lon="6.23034">
        <ele>1303.685059</ele>
        <time>2010-12-04T16:58:00Z</time>
      </trkpt>
      <trkpt lat="45.96094" lon="6.23043">
        <ele>1302.24292</ele>
        <time>2010-12-04T16:58:10Z</time>
      </trkpt>
      <trkpt lat="45.961" lon="6.23051">
        <ele>1301.762451</ele>
        <time>2010-12-04T16:58:19Z</time>
      </trkpt>
      <trkpt lat="45.96109" lon="6.23059">
        <ele>1299.839844</ele>
        <time>2010-12-04T16:58:28Z</time>
      </trkpt>
      <trkpt lat="45.96118" lon="6.23068">
        <ele>1297.917236</ele>
        <time>2010-12-04T16:58:37Z</time>
      </trkpt>
      <trkpt lat="45.96127" lon="6.23076">
        <ele>1295.994629</ele>
        <time>2010-12-04T16:58:46Z</time>
      </trkpt>
      <trkpt lat="45.9613" lon="6.23083">
        <ele>1295.033203</ele>
        <time>2010-12-04T16:58:53Z</time>
      </trkpt>
      <trkpt lat="45.96139" lon="6.23087">
        <ele>1294.072021</ele>
        <time>2010-12-04T16:59:00Z</time>
      </trkpt>
      <trkpt lat="45.96146" lon="6.23095">
        <ele>1292.630127</ele>
        <time>2010-12-04T16:59:08Z</time>
      </trkpt>
      <trkpt lat="45.96155" lon="6.23103">
        <ele>1291.668457</ele>
        <time>2010-12-04T16:59:16Z</time>
      </trkpt>
      <trkpt lat="45.96163" lon="6.23111">
        <ele>1290.226563</ele>
        <time>2010-12-04T16:59:24Z</time>
      </trkpt>
      <trkpt lat="45.96171" lon="6.23117">
        <ele>1289.74585</ele>
        <time>2010-12-04T16:59:32Z</time>
      </trkpt>
      <trkpt lat="45.96178" lon="6.23127">
        <ele>1288.784668</ele>
        <time>2010-12-04T16:59:41Z</time>
      </trkpt>
      <trkpt lat="45.96188" lon="6.23144">
        <ele>1287.342529</ele>
        <time>2010-12-04T16:59:53Z</time>
      </trkpt>
      <trkpt lat="45.96194" lon="6.2315">
        <ele>1286.861816</ele>
        <time>2010-12-04T17:00:01Z</time>
      </trkpt>
      <trkpt lat="45.962" lon="6.23158">
        <ele>1285.900635</ele>
        <time>2010-12-04T17:00:07Z</time>
      </trkpt>
      <trkpt lat="45.96204" lon="6.23165">
        <ele>1284.939453</ele>
        <time>2010-12-04T17:00:13Z</time>
      </trkpt>
      <trkpt lat="45.96208" lon="6.23173">
        <ele>1283.978027</ele>
        <time>2010-12-04T17:00:18Z</time>
      </trkpt>
      <trkpt lat="45.96218" lon="6.23187">
        <ele>1283.016602</ele>
        <time>2010-12-04T17:00:29Z</time>
      </trkpt>
      <trkpt lat="45.96223" lon="6.23195">
        <ele>1282.536133</ele>
        <time>2010-12-04T17:00:35Z</time>
      </trkpt>
      <trkpt lat="45.96226" lon="6.23202">
        <ele>1282.05542</ele>
        <time>2010-12-04T17:00:40Z</time>
      </trkpt>
      <trkpt lat="45.96232" lon="6.2321">
        <ele>1280.132813</ele>
        <time>2010-12-04T17:00:48Z</time>
      </trkpt>
      <trkpt lat="45.96243" lon="6.23223">
        <ele>1278.690918</ele>
        <time>2010-12-04T17:00:59Z</time>
      </trkpt>
      <trkpt lat="45.96253" lon="6.23233">
        <ele>1276.768311</ele>
        <time>2010-12-04T17:01:08Z</time>
      </trkpt>
      <trkpt lat="45.9627" lon="6.23236">
        <ele>1276.768311</ele>
        <time>2010-12-04T17:01:18Z</time>
      </trkpt>
      <trkpt lat="45.96279" lon="6.23236">
        <ele>1274.845459</ele>
        <time>2010-12-04T17:01:26Z</time>
      </trkpt>
      <trkpt lat="45.96287" lon="6.23236">
        <ele>1273.403564</ele>
        <time>2010-12-04T17:01:32Z</time>
      </trkpt>
      <trkpt lat="45.96294" lon="6.23241">
        <ele>1272.922852</ele>
        <time>2010-12-04T17:01:38Z</time>
      </trkpt>
      <trkpt lat="45.963" lon="6.23247">
        <ele>1271.961426</ele>
        <time>2010-12-04T17:01:45Z</time>
      </trkpt>
      <trkpt lat="45.96309" lon="6.23255">
        <ele>1270.038818</ele>
        <time>2010-12-04T17:01:55Z</time>
      </trkpt>
      <trkpt lat="45.96316" lon="6.2326">
        <ele>1269.55835</ele>
        <time>2010-12-04T17:02:02Z</time>
      </trkpt>
      <trkpt lat="45.96324" lon="6.23267">
        <ele>1268.116211</ele>
        <time>2010-12-04T17:02:11Z</time>
      </trkpt>
      <trkpt lat="45.96331" lon="6.23274">
        <ele>1267.635498</ele>
        <time>2010-12-04T17:02:19Z</time>
      </trkpt>
      <trkpt lat="45.96339" lon="6.2328">
        <ele>1266.193604</ele>
        <time>2010-12-04T17:02:25Z</time>
      </trkpt>
      <trkpt lat="45.96349" lon="6.23283">
        <ele>1265.232422</ele>
        <time>2010-12-04T17:02:33Z</time>
      </trkpt>
      <trkpt lat="45.96358" lon="6.23285">
        <ele>1263.790283</ele>
        <time>2010-12-04T17:02:40Z</time>
      </trkpt>
      <trkpt lat="45.96368" lon="6.23289">
        <ele>1261.86792</ele>
        <time>2010-12-04T17:02:49Z</time>
      </trkpt>
      <trkpt lat="45.96376" lon="6.23295">
        <ele>1260.906494</ele>
        <time>2010-12-04T17:02:57Z</time>
      </trkpt>
      <trkpt lat="45.96384" lon="6.23301">
        <ele>1259.464355</ele>
        <time>2010-12-04T17:03:02Z</time>
      </trkpt>
      <trkpt lat="45.96395" lon="6.2331">
        <ele>1257.541748</ele>
        <time>2010-12-04T17:03:13Z</time>
      </trkpt>
      <trkpt lat="45.96404" lon="6.23318">
        <ele>1256.580322</ele>
        <time>2010-12-04T17:03:23Z</time>
      </trkpt>
      <trkpt lat="45.96412" lon="6.23327">
        <ele>1254.657715</ele>
        <time>2010-12-04T17:03:33Z</time>
      </trkpt>
      <trkpt lat="45.96421" lon="6.23336">
        <ele>1252.735107</ele>
        <time>2010-12-04T17:03:43Z</time>
      </trkpt>
      <trkpt lat="45.96432" lon="6.23337">
        <ele>1252.735107</ele>
        <time>2010-12-04T17:03:54Z</time>
      </trkpt>
      <trkpt lat="45.9644" lon="6.23335">
        <ele>1252.735107</ele>
        <time>2010-12-04T17:04:10Z</time>
      </trkpt>
      <trkpt lat="45.96445" lon="6.23344">
        <ele>1251.293213</ele>
        <time>2010-12-04T17:04:17Z</time>
      </trkpt>
      <trkpt lat="45.9645" lon="6.23357">
        <ele>1250.8125</ele>
        <time>2010-12-04T17:04:28Z</time>
      </trkpt>
      <trkpt lat="45.96457" lon="6.23366">
        <ele>1248.889893</ele>
        <time>2010-12-04T17:04:38Z</time>
      </trkpt>
      <trkpt lat="45.96465" lon="6.23375">
        <ele>1248.40918</ele>
        <time>2010-12-04T17:04:48Z</time>
      </trkpt>
      <trkpt lat="45.96473" lon="6.23382">
        <ele>1246.967285</ele>
        <time>2010-12-04T17:04:57Z</time>
      </trkpt>
      <trkpt lat="45.96482" lon="6.23391">
        <ele>1246.006104</ele>
        <time>2010-12-04T17:05:07Z</time>
      </trkpt>
      <trkpt lat="45.9649" lon="6.234">
        <ele>1244.083496</ele>
        <time>2010-12-04T17:05:16Z</time>
      </trkpt>
      <trkpt lat="45.96499" lon="6.23407">
        <ele>1243.602539</ele>
        <time>2010-12-04T17:05:24Z</time>
      </trkpt>
      <trkpt lat="45.96502" lon="6.23412">
        <ele>1243.121826</ele>
        <time>2010-12-04T17:05:28Z</time>
      </trkpt>
      <trkpt lat="45.96513" lon="6.23425">
        <ele>1242.160645</ele>
        <time>2010-12-04T17:05:39Z</time>
      </trkpt>
      <trkpt lat="45.9652" lon="6.23435">
        <ele>1240.718506</ele>
        <time>2010-12-04T17:05:48Z</time>
      </trkpt>
      <trkpt lat="45.96528" lon="6.23442">
        <ele>1239.276611</ele>
        <time>2010-12-04T17:05:57Z</time>
      </trkpt>
      <trkpt lat="45.96532" lon="6.23445">
        <ele>1238.796143</ele>
        <time>2010-12-04T17:06:01Z</time>
      </trkpt>
      <trkpt lat="45.96539" lon="6.23457">
        <ele>1237.354004</ele>
        <time>2010-12-04T17:06:10Z</time>
      </trkpt>
      <trkpt lat="45.96546" lon="6.23471">
        <ele>1234.950928</ele>
        <time>2010-12-04T17:06:19Z</time>
      </trkpt>
      <trkpt lat="45.96556" lon="6.23482">
        <ele>1233.508789</ele>
        <time>2010-12-04T17:06:29Z</time>
      </trkpt>
      <trkpt lat="45.96566" lon="6.23488">
        <ele>1231.586182</ele>
        <time>2010-12-04T17:06:37Z</time>
      </trkpt>
      <trkpt lat="45.96577" lon="6.23497">
        <ele>1230.144287</ele>
        <time>2010-12-04T17:06:48Z</time>
      </trkpt>
      <trkpt lat="45.96582" lon="6.235">
        <ele>1230.144287</ele>
        <time>2010-12-04T17:06:56Z</time>
      </trkpt>
      <trkpt lat="45.96589" lon="6.23499">
        <ele>1230.144287</ele>
        <time>2010-12-04T17:07:11Z</time>
      </trkpt>
      <trkpt lat="45.96591" lon="6.23497">
        <ele>1230.144287</ele>
        <time>2010-12-04T17:07:21Z</time>
      </trkpt>
      <trkpt lat="45.96598" lon="6.23499">
        <ele>1228.22168</ele>
        <time>2010-12-04T17:07:30Z</time>
      </trkpt>
      <trkpt lat="45.96602" lon="6.235">
        <ele>1224.856934</ele>
        <time>2010-12-04T17:07:36Z</time>
      </trkpt>
      <trkpt lat="45.96608" lon="6.23502">
        <ele>1222.453613</ele>
        <time>2010-12-04T17:07:44Z</time>
      </trkpt>
      <trkpt lat="45.96616" lon="6.23503">
        <ele>1221.492188</ele>
        <time>2010-12-04T17:07:53Z</time>
      </trkpt>
      <trkpt lat="45.96623" lon="6.23503">
        <ele>1218.127686</ele>
        <time>2010-12-04T17:08:00Z</time>
      </trkpt>
      <trkpt lat="45.96635" lon="6.23509">
        <ele>1215.724609</ele>
        <time>2010-12-04T17:08:11Z</time>
      </trkpt>
      <trkpt lat="45.96641" lon="6.23511">
        <ele>1214.282471</ele>
        <time>2010-12-04T17:08:17Z</time>
      </trkpt>
      <trkpt lat="45.9665" lon="6.23513">
        <ele>1212.359863</ele>
        <time>2010-12-04T17:08:26Z</time>
      </trkpt>
      <trkpt lat="45.96649" lon="6.23508">
        <ele>1210.917725</ele>
        <time>2010-12-04T17:08:32Z</time>
      </trkpt>
      <trkpt lat="45.96648" lon="6.23506">
        <ele>1209.47583</ele>
        <time>2010-12-04T17:08:36Z</time>
      </trkpt>
      <trkpt lat="45.96646" lon="6.23504">
        <ele>1209.956299</ele>
        <time>2010-12-04T17:08:38Z</time>
      </trkpt>
      <trkpt lat="45.96643" lon="6.23498">
        <ele>1208.514404</ele>
        <time>2010-12-04T17:08:42Z</time>
      </trkpt>
      <trkpt lat="45.96633" lon="6.23481">
        <ele>1207.07251</ele>
        <time>2010-12-04T17:08:53Z</time>
      </trkpt>
      <trkpt lat="45.96624" lon="6.23473">
        <ele>1205.149902</ele>
        <time>2010-12-04T17:09:04Z</time>
      </trkpt>
      <trkpt lat="45.96622" lon="6.23467">
        <ele>1202.746582</ele>
        <time>2010-12-04T17:09:09Z</time>
      </trkpt>
      <trkpt lat="45.96629" lon="6.23466">
        <ele>1201.304688</ele>
        <time>2010-12-04T17:09:19Z</time>
      </trkpt>
      <trkpt lat="45.96636" lon="6.23467">
        <ele>1199.38208</ele>
        <time>2010-12-04T17:09:27Z</time>
      </trkpt>
      <trkpt lat="45.96642" lon="6.2347">
        <ele>1198.420654</ele>
        <time>2010-12-04T17:09:34Z</time>
      </trkpt>
      <trkpt lat="45.9665" lon="6.23474">
        <ele>1197.459473</ele>
        <time>2010-12-04T17:09:41Z</time>
      </trkpt>
      <trkpt lat="45.96656" lon="6.2348">
        <ele>1196.017578</ele>
        <time>2010-12-04T17:09:50Z</time>
      </trkpt>
      <trkpt lat="45.96665" lon="6.23483">
        <ele>1193.133301</ele>
        <time>2010-12-04T17:09:58Z</time>
      </trkpt>
      <trkpt lat="45.96675" lon="6.23485">
        <ele>1192.652832</ele>
        <time>2010-12-04T17:10:05Z</time>
      </trkpt>
      <trkpt lat="45.96682" lon="6.23488">
        <ele>1189.768799</ele>
        <time>2010-12-04T17:10:12Z</time>
      </trkpt>
      <trkpt lat="45.96691" lon="6.23491">
        <ele>1188.807617</ele>
        <time>2010-12-04T17:10:21Z</time>
      </trkpt>
      <trkpt lat="45.96698" lon="6.235">
        <ele>1187.365479</ele>
        <time>2010-12-04T17:10:29Z</time>
      </trkpt>
      <trkpt lat="45.96704" lon="6.23506">
        <ele>1185.923584</ele>
        <time>2010-12-04T17:10:36Z</time>
      </trkpt>
      <trkpt lat="45.96713" lon="6.23512">
        <ele>1184.000977</ele>
        <time>2010-12-04T17:10:43Z</time>
      </trkpt>
      <trkpt lat="45.96722" lon="6.23516">
        <ele>1182.559082</ele>
        <time>2010-12-04T17:10:52Z</time>
      </trkpt>
      <trkpt lat="45.9673" lon="6.23521">
        <ele>1181.117188</ele>
        <time>2010-12-04T17:11:00Z</time>
      </trkpt>
      <trkpt lat="45.9674" lon="6.23528">
        <ele>1178.713623</ele>
        <time>2010-12-04T17:11:10Z</time>
      </trkpt>
      <trkpt lat="45.96751" lon="6.23537">
        <ele>1176.791016</ele>
        <time>2010-12-04T17:11:20Z</time>
      </trkpt>
      <trkpt lat="45.96754" lon="6.23543">
        <ele>1176.310303</ele>
        <time>2010-12-04T17:11:24Z</time>
      </trkpt>
      <trkpt lat="45.96763" lon="6.23552">
        <ele>1173.906982</ele>
        <time>2010-12-04T17:11:33Z</time>
      </trkpt>
      <trkpt lat="45.96775" lon="6.23556">
        <ele>1171.503662</ele>
        <time>2010-12-04T17:11:42Z</time>
      </trkpt>
      <trkpt lat="45.96784" lon="6.23563">
        <ele>1170.061768</ele>
        <time>2010-12-04T17:11:51Z</time>
      </trkpt>
      <trkpt lat="45.96793" lon="6.23569">
        <ele>1169.581299</ele>
        <time>2010-12-04T17:12:00Z</time>
      </trkpt>
      <trkpt lat="45.96805" lon="6.23573">
        <ele>1167.177979</ele>
        <time>2010-12-04T17:12:10Z</time>
      </trkpt>
      <trkpt lat="45.96814" lon="6.23578">
        <ele>1164.774658</ele>
        <time>2010-12-04T17:12:20Z</time>
      </trkpt>
      <trkpt lat="45.96818" lon="6.23581">
        <ele>1163.33252</ele>
        <time>2010-12-04T17:12:24Z</time>
      </trkpt>
      <trkpt lat="45.96826" lon="6.23589">
        <ele>1161.890625</ele>
        <time>2010-12-04T17:12:32Z</time>
      </trkpt>
      <trkpt lat="45.96829" lon="6.23593">
        <ele>1160.929199</ele>
        <time>2010-12-04T17:12:37Z</time>
      </trkpt>
      <trkpt lat="45.96835" lon="6.23603">
        <ele>1159.006592</ele>
        <time>2010-12-04T17:12:46Z</time>
      </trkpt>
      <trkpt lat="45.96842" lon="6.23614">
        <ele>1157.564697</ele>
        <time>2010-12-04T17:12:56Z</time>
      </trkpt>
      <trkpt lat="45.96849" lon="6.23623">
        <ele>1156.603271</ele>
        <time>2010-12-04T17:13:04Z</time>
      </trkpt>
      <trkpt lat="45.96856" lon="6.23635">
        <ele>1154.200195</ele>
        <time>2010-12-04T17:13:14Z</time>
      </trkpt>
      <trkpt lat="45.96862" lon="6.2365">
        <ele>1152.277344</ele>
        <time>2010-12-04T17:13:24Z</time>
      </trkpt>
      <trkpt lat="45.96863" lon="6.23665">
        <ele>1151.316162</ele>
        <time>2010-12-04T17:13:33Z</time>
      </trkpt>
      <trkpt lat="45.96868" lon="6.23676">
        <ele>1149.393555</ele>
        <time>2010-12-04T17:13:41Z</time>
      </trkpt>
      <trkpt lat="45.96874" lon="6.23671">
        <ele>1148.432129</ele>
        <time>2010-12-04T17:13:48Z</time>
      </trkpt>
      <trkpt lat="45.96876" lon="6.23663">
        <ele>1147.951416</ele>
        <time>2010-12-04T17:13:55Z</time>
      </trkpt>
      <trkpt lat="45.96879" lon="6.23659">
        <ele>1148.432129</ele>
        <time>2010-12-04T17:14:02Z</time>
      </trkpt>
      <trkpt lat="45.96879" lon="6.23651">
        <ele>1146.98999</ele>
        <time>2010-12-04T17:14:40Z</time>
      </trkpt>
      <trkpt lat="45.96881" lon="6.23643">
        <ele>1146.98999</ele>
        <time>2010-12-04T17:14:47Z</time>
      </trkpt>
      <trkpt lat="45.96879" lon="6.23632">
        <ele>1145.548096</ele>
        <time>2010-12-04T17:14:55Z</time>
      </trkpt>
      <trkpt lat="45.96879" lon="6.23627">
        <ele>1145.067383</ele>
        <time>2010-12-04T17:15:00Z</time>
      </trkpt>
      <trkpt lat="45.96879" lon="6.23619">
        <ele>1144.106201</ele>
        <time>2010-12-04T17:15:08Z</time>
      </trkpt>
      <trkpt lat="45.96876" lon="6.23608">
        <ele>1142.183594</ele>
        <time>2010-12-04T17:15:15Z</time>
      </trkpt>
      <trkpt lat="45.96872" lon="6.23592">
        <ele>1140.741455</ele>
        <time>2010-12-04T17:15:24Z</time>
      </trkpt>
      <trkpt lat="45.96869" lon="6.2358">
        <ele>1139.299561</ele>
        <time>2010-12-04T17:15:32Z</time>
      </trkpt>
      <trkpt lat="45.96865" lon="6.23566">
        <ele>1137.376953</ele>
        <time>2010-12-04T17:15:41Z</time>
      </trkpt>
      <trkpt lat="45.96863" lon="6.23555">
        <ele>1135.935059</ele>
        <time>2010-12-04T17:15:48Z</time>
      </trkpt>
      <trkpt lat="45.9686" lon="6.2354">
        <ele>1133.531738</ele>
        <time>2010-12-04T17:15:57Z</time>
      </trkpt>
      <trkpt lat="45.96858" lon="6.23529">
        <ele>1131.128418</ele>
        <time>2010-12-04T17:16:06Z</time>
      </trkpt>
      <trkpt lat="45.96854" lon="6.23518">
        <ele>1129.686279</ele>
        <time>2010-12-04T17:16:14Z</time>
      </trkpt>
      <trkpt lat="45.96851" lon="6.23513">
        <ele>1127.283203</ele>
        <time>2010-12-04T17:16:19Z</time>
      </trkpt>
      <trkpt lat="45.96848" lon="6.23503">
        <ele>1125.841064</ele>
        <time>2010-12-04T17:16:25Z</time>
      </trkpt>
      <trkpt lat="45.96842" lon="6.23486">
        <ele>1123.918457</ele>
        <time>2010-12-04T17:16:35Z</time>
      </trkpt>
      <trkpt lat="45.96836" lon="6.23474">
        <ele>1121.99585</ele>
        <time>2010-12-04T17:16:45Z</time>
      </trkpt>
      <trkpt lat="45.9683" lon="6.23464">
        <ele>1120.073242</ele>
        <time>2010-12-04T17:16:54Z</time>
      </trkpt>
      <trkpt lat="45.96825" lon="6.23451">
        <ele>1116.70874</ele>
        <time>2010-12-04T17:17:03Z</time>
      </trkpt>
      <trkpt lat="45.9682" lon="6.23441">
        <ele>1115.266602</ele>
        <time>2010-12-04T17:17:10Z</time>
      </trkpt>
      <trkpt lat="45.96814" lon="6.23428">
        <ele>1113.343994</ele>
        <time>2010-12-04T17:17:20Z</time>
      </trkpt>
      <trkpt lat="45.9681" lon="6.23421">
        <ele>1111.421387</ele>
        <time>2010-12-04T17:17:24Z</time>
      </trkpt>
      <trkpt lat="45.96808" lon="6.23414">
        <ele>1109.979248</ele>
        <time>2010-12-04T17:17:28Z</time>
      </trkpt>
      <trkpt lat="45.968" lon="6.23397">
        <ele>1108.056885</ele>
        <time>2010-12-04T17:17:39Z</time>
      </trkpt>
      <trkpt lat="45.96791" lon="6.23378">
        <ele>1104.692139</ele>
        <time>2010-12-04T17:17:52Z</time>
      </trkpt>
      <trkpt lat="45.96782" lon="6.23362">
        <ele>1102.288818</ele>
        <time>2010-12-04T17:18:03Z</time>
      </trkpt>
      <trkpt lat="45.96776" lon="6.23348">
        <ele>1100.366455</ele>
        <time>2010-12-04T17:18:12Z</time>
      </trkpt>
      <trkpt lat="45.96771" lon="6.23338">
        <ele>1097.482178</ele>
        <time>2010-12-04T17:18:19Z</time>
      </trkpt>
      <trkpt lat="45.96766" lon="6.2333">
        <ele>1096.040283</ele>
        <time>2010-12-04T17:18:26Z</time>
      </trkpt>
      <trkpt lat="45.9676" lon="6.23319">
        <ele>1094.598145</ele>
        <time>2010-12-04T17:18:34Z</time>
      </trkpt>
      <trkpt lat="45.96757" lon="6.2331">
        <ele>1094.117676</ele>
        <time>2010-12-04T17:18:42Z</time>
      </trkpt>
      <trkpt lat="45.96753" lon="6.233">
        <ele>1091.233643</ele>
        <time>2010-12-04T17:18:50Z</time>
      </trkpt>
      <trkpt lat="45.96749" lon="6.2329">
        <ele>1089.311035</ele>
        <time>2010-12-04T17:18:58Z</time>
      </trkpt>
      <trkpt lat="45.96746" lon="6.23281">
        <ele>1088.349854</ele>
        <time>2010-12-04T17:19:05Z</time>
      </trkpt>
      <trkpt lat="45.96743" lon="6.2327">
        <ele>1086.907715</ele>
        <time>2010-12-04T17:19:13Z</time>
      </trkpt>
      <trkpt lat="45.96739" lon="6.23265">
        <ele>1087.388428</ele>
        <time>2010-12-04T17:19:22Z</time>
      </trkpt>
      <trkpt lat="45.96731" lon="6.23266">
        <ele>1087.388428</ele>
        <time>2010-12-04T17:19:37Z</time>
      </trkpt>
      <trkpt lat="45.9673" lon="6.23264">
        <ele>1087.869141</ele>
        <time>2010-12-04T17:20:09Z</time>
      </trkpt>
      <trkpt lat="45.9673" lon="6.2326">
        <ele>1087.869141</ele>
        <time>2010-12-04T17:20:18Z</time>
      </trkpt>
      <trkpt lat="45.9673" lon="6.23257">
        <ele>1086.427246</ele>
        <time>2010-12-04T17:20:21Z</time>
      </trkpt>
      <trkpt lat="45.96731" lon="6.23243">
        <ele>1084.504639</ele>
        <time>2010-12-04T17:20:30Z</time>
      </trkpt>
      <trkpt lat="45.9673" lon="6.23224">
        <ele>1082.101074</ele>
        <time>2010-12-04T17:20:39Z</time>
      </trkpt>
      <trkpt lat="45.96728" lon="6.23214">
        <ele>1080.65918</ele>
        <time>2010-12-04T17:20:45Z</time>
      </trkpt>
      <trkpt lat="45.96726" lon="6.23202">
        <ele>1079.217041</ele>
        <time>2010-12-04T17:20:53Z</time>
      </trkpt>
      <trkpt lat="45.96723" lon="6.23193">
        <ele>1077.294678</ele>
        <time>2010-12-04T17:21:00Z</time>
      </trkpt>
      <trkpt lat="45.96723" lon="6.23192">
        <ele>1077.294678</ele>
        <time>2010-12-04T17:21:01Z</time>
      </trkpt>
      <trkpt lat="45.96719" lon="6.23186">
        <ele>1075.852539</ele>
        <time>2010-12-04T17:21:10Z</time>
      </trkpt>
      <trkpt lat="45.96714" lon="6.23178">
        <ele>1073.929932</ele>
        <time>2010-12-04T17:21:19Z</time>
      </trkpt>
      <trkpt lat="45.96711" lon="6.23174">
        <ele>1072.96875</ele>
        <time>2010-12-04T17:21:25Z</time>
      </trkpt>
      <trkpt lat="45.96708" lon="6.23171">
        <ele>1072.007324</ele>
        <time>2010-12-04T17:21:35Z</time>
      </trkpt>
      <trkpt lat="45.967" lon="6.23166">
        <ele>1071.526611</ele>
        <time>2010-12-04T17:21:48Z</time>
      </trkpt>
      <trkpt lat="45.96697" lon="6.23161">
        <ele>1069.604248</ele>
        <time>2010-12-04T17:21:57Z</time>
      </trkpt>
      <trkpt lat="45.96693" lon="6.2316">
        <ele>1068.642822</ele>
        <time>2010-12-04T17:22:03Z</time>
      </trkpt>
      <trkpt lat="45.96688" lon="6.23156">
        <ele>1066.239258</ele>
        <time>2010-12-04T17:22:12Z</time>
      </trkpt>
      <trkpt lat="45.96685" lon="6.23142">
        <ele>1064.31665</ele>
        <time>2010-12-04T17:22:20Z</time>
      </trkpt>
      <trkpt lat="45.9668" lon="6.23131">
        <ele>1063.835938</ele>
        <time>2010-12-04T17:22:25Z</time>
      </trkpt>
      <trkpt lat="45.96677" lon="6.23122">
        <ele>1062.394043</ele>
        <time>2010-12-04T17:22:31Z</time>
      </trkpt>
      <trkpt lat="45.96684" lon="6.23129">
        <ele>1060.471436</ele>
        <time>2010-12-04T17:22:42Z</time>
      </trkpt>
      <trkpt lat="45.96686" lon="6.2313">
        <ele>1059.510254</ele>
        <time>2010-12-04T17:22:46Z</time>
      </trkpt>
      <trkpt lat="45.96697" lon="6.23123">
        <ele>1058.068359</ele>
        <time>2010-12-04T17:22:55Z</time>
      </trkpt>
      <trkpt lat="45.96704" lon="6.23121">
        <ele>1057.106934</ele>
        <time>2010-12-04T17:23:08Z</time>
      </trkpt>
      <trkpt lat="45.96714" lon="6.2312">
        <ele>1055.184326</ele>
        <time>2010-12-04T17:23:17Z</time>
      </trkpt>
      <trkpt lat="45.96726" lon="6.2312">
        <ele>1053.261719</ele>
        <time>2010-12-04T17:23:29Z</time>
      </trkpt>
      <trkpt lat="45.96736" lon="6.23122">
        <ele>1051.81958</ele>
        <time>2010-12-04T17:23:36Z</time>
      </trkpt>
      <trkpt lat="45.96746" lon="6.23129">
        <ele>1050.377686</ele>
        <time>2010-12-04T17:23:46Z</time>
      </trkpt>
      <trkpt lat="45.96753" lon="6.23132">
        <ele>1050.377686</ele>
        <time>2010-12-04T17:23:53Z</time>
      </trkpt>
      <trkpt lat="45.96759" lon="6.23133">
        <ele>1048.454834</ele>
        <time>2010-12-04T17:24:00Z</time>
      </trkpt>
      <trkpt lat="45.96763" lon="6.23136">
        <ele>1047.493652</ele>
        <time>2010-12-04T17:24:07Z</time>
      </trkpt>
      <trkpt lat="45.9677" lon="6.23137">
        <ele>1046.532471</ele>
        <time>2010-12-04T17:24:13Z</time>
      </trkpt>
      <trkpt lat="45.96779" lon="6.23139">
        <ele>1044.12915</ele>
        <time>2010-12-04T17:24:21Z</time>
      </trkpt>
      <trkpt lat="45.96793" lon="6.23138">
        <ele>1043.648438</ele>
        <time>2010-12-04T17:24:31Z</time>
      </trkpt>
      <trkpt lat="45.96802" lon="6.23143">
        <ele>1042.687256</ele>
        <time>2010-12-04T17:24:38Z</time>
      </trkpt>
      <trkpt lat="45.96806" lon="6.23146">
        <ele>1041.72583</ele>
        <time>2010-12-04T17:24:45Z</time>
      </trkpt>
      <trkpt lat="45.96813" lon="6.23145">
        <ele>1040.283936</ele>
        <time>2010-12-04T17:24:55Z</time>
      </trkpt>
      <trkpt lat="45.96819" lon="6.2314">
        <ele>1039.32251</ele>
        <time>2010-12-04T17:25:15Z</time>
      </trkpt>
      <trkpt lat="45.96826" lon="6.2314">
        <ele>1037.880615</ele>
        <time>2010-12-04T17:25:21Z</time>
      </trkpt>
      <trkpt lat="45.96832" lon="6.23145">
        <ele>1037.399902</ele>
        <time>2010-12-04T17:25:27Z</time>
      </trkpt>
      <trkpt lat="45.9684" lon="6.23149">
        <ele>1036.438721</ele>
        <time>2010-12-04T17:25:34Z</time>
      </trkpt>
      <trkpt lat="45.96851" lon="6.23153">
        <ele>1034.035156</ele>
        <time>2010-12-04T17:25:42Z</time>
      </trkpt>
      <trkpt lat="45.9685" lon="6.23157">
        <ele>1031.151367</ele>
        <time>2010-12-04T17:26:19Z</time>
      </trkpt>
      <trkpt lat="45.96848" lon="6.23136">
        <ele>1029.228516</ele>
        <time>2010-12-04T17:26:29Z</time>
      </trkpt>
      <trkpt lat="45.96847" lon="6.23126">
        <ele>1028.267334</ele>
        <time>2010-12-04T17:26:37Z</time>
      </trkpt>
      <trkpt lat="45.96843" lon="6.23116">
        <ele>1027.306152</ele>
        <time>2010-12-04T17:26:46Z</time>
      </trkpt>
      <trkpt lat="45.96842" lon="6.2311">
        <ele>1027.306152</ele>
        <time>2010-12-04T17:27:12Z</time>
      </trkpt>
      <trkpt lat="45.96838" lon="6.23114">
        <ele>1027.786621</ele>
        <time>2010-12-04T17:27:20Z</time>
      </trkpt>
      <trkpt lat="45.96834" lon="6.23115">
        <ele>1027.786621</ele>
        <time>2010-12-04T17:27:39Z</time>
      </trkpt>
      <trkpt lat="45.9683" lon="6.23103">
        <ele>1026.825439</ele>
        <time>2010-12-04T17:27:46Z</time>
      </trkpt>
      <trkpt lat="45.96826" lon="6.2309">
        <ele>1026.344727</ele>
        <time>2010-12-04T17:27:54Z</time>
      </trkpt>
      <trkpt lat="45.96823" lon="6.23084">
        <ele>1025.383301</ele>
        <time>2010-12-04T17:28:02Z</time>
      </trkpt>
      <trkpt lat="45.96815" lon="6.23073">
        <ele>1024.902832</ele>
        <time>2010-12-04T17:28:14Z</time>
      </trkpt>
      <trkpt lat="45.96809" lon="6.23066">
        <ele>1023.941406</ele>
        <time>2010-12-04T17:28:21Z</time>
      </trkpt>
      <trkpt lat="45.96805" lon="6.2306">
        <ele>1022.980225</ele>
        <time>2010-12-04T17:28:28Z</time>
      </trkpt>
      <trkpt lat="45.96799" lon="6.23052">
        <ele>1021.538086</ele>
        <time>2010-12-04T17:28:35Z</time>
      </trkpt>
      <trkpt lat="45.96793" lon="6.23049">
        <ele>1021.057617</ele>
        <time>2010-12-04T17:28:41Z</time>
      </trkpt>
      <trkpt lat="45.96786" lon="6.23043">
        <ele>1020.576904</ele>
        <time>2010-12-04T17:28:48Z</time>
      </trkpt>
      <trkpt lat="45.96777" lon="6.23036">
        <ele>1020.576904</ele>
        <time>2010-12-04T17:28:55Z</time>
      </trkpt>
      <trkpt lat="45.96773" lon="6.23033">
        <ele>1019.134766</ele>
        <time>2010-12-04T17:29:00Z</time>
      </trkpt>
      <trkpt lat="45.96765" lon="6.23027">
        <ele>1018.654053</ele>
        <time>2010-12-04T17:29:07Z</time>
      </trkpt>
      <trkpt lat="45.96753" lon="6.23017">
        <ele>1017.212158</ele>
        <time>2010-12-04T17:29:16Z</time>
      </trkpt>
      <trkpt lat="45.96742" lon="6.2301">
        <ele>1017.212158</ele>
        <time>2010-12-04T17:29:25Z</time>
      </trkpt>
      <trkpt lat="45.96735" lon="6.23005">
        <ele>1015.770264</ele>
        <time>2010-12-04T17:29:32Z</time>
      </trkpt>
      <trkpt lat="45.96728" lon="6.22996">
        <ele>1014.808838</ele>
        <time>2010-12-04T17:29:41Z</time>
      </trkpt>
      <trkpt lat="45.96724" lon="6.22982">
        <ele>1013.847412</ele>
        <time>2010-12-04T17:29:51Z</time>
      </trkpt>
    </trkseg>
  </trk>
</gpx>